Time,TemperatureF,DewpointF,PressureIn,WindDirection,WindDirectionDegrees,WindSpeedMPH,WindSpeedGustMPH,Humidity,HourlyPrecipIn,Conditions,Clouds,dailyrainin,SoftwareType,DateUTC
2013-06-25 00:01:00,79.5,74.9,30.01,East,90,3.8,3.8,86,0.00,,---,0.00,VWS V13.01,2013-06-25 04:01:00,
2013-06-25 00:06:00,79.5,74.9,30.01,SE,135,0.0,0.0,86,0.00,,---,0.00,VWS V13.01,2013-06-25 04:06:00,
2013-06-25 00:07:00,79.5,74.9,30.01,ESE,112,2.4,2.4,86,0.00,,---,0.00,VWS V13.01,2013-06-25 04:07:00,
2013-06-25 00:11:00,79.5,74.9,30.01,ENE,68,1.3,1.3,86,0.00,,---,0.00,VWS V13.01,2013-06-25 04:11:00,
2013-06-25 00:12:00,79.5,74.9,30.01,SE,135,3.3,3.3,86,0.00,,---,0.00,VWS V13.01,2013-06-25 04:12:00,
2013-06-25 00:16:00,79.5,74.9,30.01,SE,135,1.7,1.7,86,0.00,,---,0.00,VWS V13.01,2013-06-25 04:16:00,
2013-06-25 00:17:00,79.5,74.9,30.01,East,90,0.8,0.8,86,0.00,,---,0.00,VWS V13.01,2013-06-25 04:17:00,
2013-06-25 00:21:00,79.5,74.9,30.00,South,180,0.0,0.0,86,0.00,,---,0.00,VWS V13.01,2013-06-25 04:21:00,
2013-06-25 00:22:00,79.5,74.9,30.00,SE,135,4.0,4.0,86,0.00,,---,0.00,VWS V13.01,2013-06-25 04:22:00,
2013-06-25 00:26:00,79.5,74.9,30.00,East,90,0.6,0.6,86,0.00,,---,0.00,VWS V13.01,2013-06-25 04:26:00,
2013-06-25 00:27:00,79.5,74.9,30.00,SE,135,5.5,5.5,86,0.00,,---,0.00,VWS V13.01,2013-06-25 04:27:00,
2013-06-25 00:31:00,79.5,74.9,30.00,ESE,112,1.5,1.5,86,0.00,,---,0.00,VWS V13.01,2013-06-25 04:31:00,
2013-06-25 00:32:00,79.5,74.9,30.00,SSE,158,0.0,0.0,86,0.00,,---,0.00,VWS V13.01,2013-06-25 04:32:00,
2013-06-25 00:36:00,79.5,75.3,30.00,SE,135,4.9,4.9,87,0.00,,---,0.00,VWS V13.01,2013-06-25 04:36:00,
2013-06-25 00:37:00,79.5,75.3,30.00,ENE,68,3.5,3.5,87,0.00,,---,0.00,VWS V13.01,2013-06-25 04:37:00,
2013-06-25 00:41:00,79.5,75.3,30.00,East,90,0.0,0.0,87,0.00,,---,0.00,VWS V13.01,2013-06-25 04:41:00,
2013-06-25 00:42:00,79.3,75.1,30.00,ESE,112,3.8,3.8,87,0.00,,---,0.00,VWS V13.01,2013-06-25 04:42:00,
2013-06-25 00:46:00,79.3,75.1,29.99,ENE,68,1.7,1.7,87,0.00,,---,0.00,VWS V13.01,2013-06-25 04:46:00,
2013-06-25 00:47:00,79.3,75.1,30.00,SE,135,2.4,2.4,87,0.00,,---,0.00,VWS V13.01,2013-06-25 04:47:00,
2013-06-25 00:51:00,79.5,75.3,30.00,ENE,68,4.0,4.0,87,0.00,,---,0.00,VWS V13.01,2013-06-25 04:51:00,
2013-06-25 00:52:00,79.3,75.1,30.00,ENE,68,0.0,0.0,87,0.00,,---,0.00,VWS V13.01,2013-06-25 04:52:00,
2013-06-25 00:53:00,79.3,75.1,30.00,East,90,0.0,0.0,87,0.00,,---,0.00,VWS V13.01,2013-06-25 04:53:00,
2013-06-25 00:56:00,79.5,75.3,30.00,ESE,112,0.0,0.0,87,0.00,,---,0.00,VWS V13.01,2013-06-25 04:56:00,
2013-06-25 00:57:00,79.5,75.3,29.99,East,90,2.6,2.6,87,0.00,,---,0.00,VWS V13.01,2013-06-25 04:57:00,
2013-06-25 00:58:00,79.5,75.3,29.99,SE,135,0.0,0.0,87,0.00,,---,0.00,VWS V13.01,2013-06-25 04:58:00,
2013-06-25 01:01:00,79.5,75.3,29.99,SE,135,0.0,0.0,87,0.00,,---,0.00,VWS V13.01,2013-06-25 05:01:00,
2013-06-25 01:02:00,79.5,75.3,29.99,ENE,68,0.0,0.0,87,0.00,,---,0.00,VWS V13.01,2013-06-25 05:02:00,
2013-06-25 01:03:00,79.5,75.3,29.99,SE,135,0.0,0.0,87,0.00,,---,0.00,VWS V13.01,2013-06-25 05:03:00,
2013-06-25 01:06:00,79.5,75.3,29.99,SE,135,1.3,5.1,87,0.00,,---,0.00,VWS V13.01,2013-06-25 05:06:00,
2013-06-25 01:07:00,79.5,75.3,29.99,SE,135,1.3,1.3,87,0.00,,---,0.00,VWS V13.01,2013-06-25 05:07:00,
2013-06-25 01:08:00,79.5,75.3,30.00,ESE,112,0.0,0.0,87,0.00,,---,0.00,VWS V13.01,2013-06-25 05:08:00,
2013-06-25 01:11:00,79.5,75.3,29.99,South,180,1.3,1.3,87,0.00,,---,0.00,VWS V13.01,2013-06-25 05:11:00,
2013-06-25 01:12:00,79.5,75.3,29.99,South,180,1.3,1.3,87,0.00,,---,0.00,VWS V13.01,2013-06-25 05:12:00,
2013-06-25 01:13:00,79.5,75.3,29.99,ESE,112,2.0,2.0,87,0.00,,---,0.00,VWS V13.01,2013-06-25 05:13:00,
2013-06-25 01:16:00,79.5,75.3,29.99,ESE,112,0.0,0.0,87,0.00,,---,0.00,VWS V13.01,2013-06-25 05:16:00,
2013-06-25 01:17:00,79.5,75.3,29.99,ESE,112,0.0,0.0,87,0.00,,---,0.00,VWS V13.01,2013-06-25 05:17:00,
2013-06-25 01:18:00,79.5,75.3,29.99,East,90,3.1,3.1,87,0.00,,---,0.00,VWS V13.01,2013-06-25 05:18:00,
2013-06-25 01:21:00,79.5,75.3,29.99,ENE,68,1.7,1.7,87,0.00,,---,0.00,VWS V13.01,2013-06-25 05:21:00,
2013-06-25 01:22:00,79.5,75.3,29.99,ENE,68,1.7,1.7,87,0.00,,---,0.00,VWS V13.01,2013-06-25 05:22:00,
2013-06-25 01:23:00,79.5,75.3,29.99,ENE,68,1.1,1.1,87,0.00,,---,0.00,VWS V13.01,2013-06-25 05:23:00,
2013-06-25 01:27:00,79.3,75.1,29.99,ESE,112,3.5,3.5,87,0.00,,---,0.00,VWS V13.01,2013-06-25 05:27:00,
2013-06-25 01:28:00,79.3,75.1,29.99,East,90,3.1,3.1,87,0.00,,---,0.00,VWS V13.01,2013-06-25 05:28:00,
2013-06-25 01:32:00,79.3,75.1,29.98,SE,135,2.6,2.6,87,0.00,,---,0.00,VWS V13.01,2013-06-25 05:32:00,
2013-06-25 01:33:00,79.3,75.1,29.98,SE,135,1.7,1.7,87,0.00,,---,0.00,VWS V13.01,2013-06-25 05:33:00,
2013-06-25 01:37:00,79.5,75.3,29.98,ENE,68,0.0,0.0,87,0.00,,---,0.00,VWS V13.01,2013-06-25 05:37:00,
2013-06-25 01:38:00,79.5,75.3,29.98,SSE,158,0.0,0.0,87,0.00,,---,0.00,VWS V13.01,2013-06-25 05:38:00,
2013-06-25 01:42:00,79.5,75.3,29.98,East,90,2.9,2.9,87,0.00,,---,0.00,VWS V13.01,2013-06-25 05:42:00,
2013-06-25 01:43:00,79.5,75.3,29.98,SE,135,1.7,1.7,87,0.00,,---,0.00,VWS V13.01,2013-06-25 05:43:00,
2013-06-25 01:47:00,79.5,75.3,29.98,ENE,68,2.2,2.2,87,0.00,,---,0.00,VWS V13.01,2013-06-25 05:47:00,
2013-06-25 01:48:00,79.5,75.3,29.98,SSW,202,0.0,0.0,87,0.00,,---,0.00,VWS V13.01,2013-06-25 05:48:00,
2013-06-25 01:52:00,79.5,75.3,29.98,East,90,2.0,2.0,87,0.00,,---,0.00,VWS V13.01,2013-06-25 05:52:00,
2013-06-25 01:53:00,79.5,75.3,29.98,SSE,158,0.0,0.0,87,0.00,,---,0.00,VWS V13.01,2013-06-25 05:53:00,
2013-06-25 01:57:00,79.5,75.3,29.98,ENE,68,4.9,4.9,87,0.00,,---,0.00,VWS V13.01,2013-06-25 05:57:00,
2013-06-25 01:58:00,79.5,74.9,29.98,East,90,4.4,4.4,86,0.00,,---,0.00,VWS V13.01,2013-06-25 05:58:00,
2013-06-25 02:02:00,79.5,74.9,29.98,East,90,0.0,0.0,86,0.00,,---,0.00,VWS V13.01,2013-06-25 06:02:00,
2013-06-25 02:03:00,79.5,74.9,29.98,SE,135,4.2,4.2,86,0.00,,---,0.00,VWS V13.01,2013-06-25 06:03:00,
2013-06-25 02:07:00,79.5,74.9,29.98,ESE,112,3.1,3.1,86,0.00,,---,0.00,VWS V13.01,2013-06-25 06:07:00,
2013-06-25 02:08:00,79.5,74.9,29.98,East,90,6.7,6.7,86,0.00,,---,0.00,VWS V13.01,2013-06-25 06:08:00,
2013-06-25 02:09:00,79.5,74.9,29.98,NE,45,6.0,6.0,86,0.00,,---,0.00,VWS V13.01,2013-06-25 06:09:00,
2013-06-25 02:12:00,79.5,74.9,29.98,East,90,0.0,0.0,86,0.00,,---,0.00,VWS V13.01,2013-06-25 06:12:00,
2013-06-25 02:13:00,79.5,74.9,29.98,ENE,68,4.0,4.0,86,0.00,,---,0.00,VWS V13.01,2013-06-25 06:13:00,
2013-06-25 02:14:00,79.5,74.9,29.98,ENE,68,6.0,6.0,86,0.00,,---,0.00,VWS V13.01,2013-06-25 06:14:00,
2013-06-25 02:17:00,79.5,74.9,29.98,ESE,112,0.0,0.0,86,0.00,,---,0.00,VWS V13.01,2013-06-25 06:17:00,
2013-06-25 02:18:00,79.5,74.9,29.98,ENE,68,3.8,3.8,86,0.00,,---,0.00,VWS V13.01,2013-06-25 06:18:00,
2013-06-25 02:19:00,79.5,74.9,29.98,East,90,6.9,6.9,86,0.00,,---,0.00,VWS V13.01,2013-06-25 06:19:00,
2013-06-25 02:22:00,79.5,74.9,29.98,ENE,68,2.0,2.0,86,0.00,,---,0.00,VWS V13.01,2013-06-25 06:22:00,
2013-06-25 02:23:00,79.5,74.9,29.98,SSE,158,0.0,0.0,86,0.00,,---,0.00,VWS V13.01,2013-06-25 06:23:00,
2013-06-25 02:24:00,79.5,74.9,29.98,ENE,68,3.3,3.3,86,0.00,,---,0.00,VWS V13.01,2013-06-25 06:24:00,
2013-06-25 02:27:00,79.5,74.9,29.98,SE,135,0.0,0.0,86,0.00,,---,0.00,VWS V13.01,2013-06-25 06:27:00,
2013-06-25 02:28:00,79.5,74.9,29.98,East,90,2.2,2.2,86,0.00,,---,0.00,VWS V13.01,2013-06-25 06:28:00,
2013-06-25 02:29:00,79.5,74.9,29.98,East,90,0.0,0.0,86,0.00,,---,0.00,VWS V13.01,2013-06-25 06:29:00,
2013-06-25 02:32:00,79.5,74.9,29.98,ESE,112,2.0,2.0,86,0.00,,---,0.00,VWS V13.01,2013-06-25 06:32:00,
2013-06-25 02:33:00,79.5,74.9,29.98,ENE,68,2.0,2.0,86,0.00,,---,0.00,VWS V13.01,2013-06-25 06:33:00,
2013-06-25 02:34:00,79.5,74.9,29.98,SE,135,0.0,0.0,86,0.00,,---,0.00,VWS V13.01,2013-06-25 06:34:00,
2013-06-25 02:37:00,79.5,74.9,29.98,East,90,5.3,5.3,86,0.00,,---,0.00,VWS V13.01,2013-06-25 06:37:00,
2013-06-25 02:38:00,79.5,74.9,29.98,East,90,5.3,5.3,86,0.00,,---,0.00,VWS V13.01,2013-06-25 06:38:00,
2013-06-25 02:39:00,79.5,74.9,29.98,SSE,158,4.2,4.2,86,0.00,,---,0.00,VWS V13.01,2013-06-25 06:39:00,
2013-06-25 02:42:00,79.5,74.9,29.98,East,90,4.4,4.4,86,0.00,,---,0.00,VWS V13.01,2013-06-25 06:42:00,
2013-06-25 02:43:00,79.5,74.9,29.98,East,90,4.4,4.4,86,0.00,,---,0.00,VWS V13.01,2013-06-25 06:43:00,
2013-06-25 02:44:00,79.5,74.9,29.98,ENE,68,2.6,2.6,86,0.00,,---,0.00,VWS V13.01,2013-06-25 06:44:00,
2013-06-25 02:47:00,79.5,74.9,29.98,ENE,68,2.6,2.6,86,0.00,,---,0.00,VWS V13.01,2013-06-25 06:47:00,
2013-06-25 02:48:00,79.5,74.9,29.98,ENE,68,2.6,2.6,86,0.00,,---,0.00,VWS V13.01,2013-06-25 06:48:00,
2013-06-25 02:49:00,79.5,74.9,29.98,ENE,68,1.5,1.5,86,0.00,,---,0.00,VWS V13.01,2013-06-25 06:49:00,
2013-06-25 02:52:00,79.5,74.9,29.98,ESE,112,8.7,8.7,86,0.00,,---,0.00,VWS V13.01,2013-06-25 06:52:00,
2013-06-25 02:53:00,79.5,74.9,29.98,ESE,112,8.7,8.7,86,0.00,,---,0.00,VWS V13.01,2013-06-25 06:53:00,
2013-06-25 02:54:00,79.5,74.9,29.98,East,90,3.1,3.1,86,0.00,,---,0.00,VWS V13.01,2013-06-25 06:54:00,
2013-06-25 02:57:00,79.5,74.9,29.98,ESE,112,2.9,2.9,86,0.00,,---,0.00,VWS V13.01,2013-06-25 06:57:00,
2013-06-25 02:58:00,79.5,74.9,29.98,ESE,112,2.9,2.9,86,0.00,,---,0.00,VWS V13.01,2013-06-25 06:58:00,
2013-06-25 02:59:00,79.5,74.9,29.98,ESE,112,2.9,2.9,86,0.00,,---,0.00,VWS V13.01,2013-06-25 06:59:00,
2013-06-25 03:03:00,79.5,74.9,29.98,SE,135,2.0,2.0,86,0.00,,---,0.00,VWS V13.01,2013-06-25 07:03:00,
2013-06-25 03:04:00,79.5,74.9,29.98,ENE,68,4.2,4.2,86,0.00,,---,0.00,VWS V13.01,2013-06-25 07:04:00,
2013-06-25 03:08:00,79.5,74.9,29.98,ENE,68,2.0,2.0,86,0.00,,---,0.00,VWS V13.01,2013-06-25 07:08:00,
2013-06-25 03:09:00,79.5,74.9,29.97,East,90,7.6,7.6,86,0.00,,---,0.00,VWS V13.01,2013-06-25 07:09:00,
2013-06-25 03:10:00,79.5,74.9,29.97,SSE,158,5.5,5.5,86,0.00,,---,0.00,VWS V13.01,2013-06-25 07:10:00,
2013-06-25 03:13:00,79.5,74.9,29.97,SE,135,0.0,0.0,86,0.00,,---,0.00,VWS V13.01,2013-06-25 07:13:00,
2013-06-25 03:14:00,79.5,74.9,29.97,ENE,68,0.0,0.0,86,0.00,,---,0.00,VWS V13.01,2013-06-25 07:14:00,
2013-06-25 03:15:00,79.5,74.9,29.97,SSE,158,2.9,2.9,86,0.00,,---,0.00,VWS V13.01,2013-06-25 07:15:00,
2013-06-25 03:18:00,79.5,74.9,29.98,ENE,68,2.9,2.9,86,0.00,,---,0.00,VWS V13.01,2013-06-25 07:18:00,
2013-06-25 03:19:00,79.5,74.9,29.98,ENE,68,3.8,3.8,86,0.00,,---,0.00,VWS V13.01,2013-06-25 07:19:00,
2013-06-25 03:20:00,79.5,74.9,29.97,ENE,68,0.0,0.0,86,0.00,,---,0.00,VWS V13.01,2013-06-25 07:20:00,
2013-06-25 03:23:00,79.5,74.9,29.97,SE,135,0.0,0.0,86,0.00,,---,0.00,VWS V13.01,2013-06-25 07:23:00,
2013-06-25 03:24:00,79.5,74.9,29.97,ENE,68,5.3,5.3,86,0.00,,---,0.00,VWS V13.01,2013-06-25 07:24:00,
2013-06-25 03:25:00,79.5,74.9,29.98,ESE,112,3.1,3.1,86,0.00,,---,0.00,VWS V13.01,2013-06-25 07:25:00,
2013-06-25 03:28:00,79.5,74.9,29.97,ENE,68,3.5,3.5,86,0.00,,---,0.00,VWS V13.01,2013-06-25 07:28:00,
2013-06-25 03:29:00,79.5,74.9,29.97,ENE,68,0.6,0.6,86,0.00,,---,0.00,VWS V13.01,2013-06-25 07:29:00,
2013-06-25 03:30:00,79.5,74.9,29.98,ENE,68,1.7,1.7,86,0.00,,---,0.00,VWS V13.01,2013-06-25 07:30:00,
2013-06-25 03:33:00,79.3,74.8,29.98,ESE,112,0.0,0.0,86,0.00,,---,0.00,VWS V13.01,2013-06-25 07:33:00,
2013-06-25 03:34:00,79.3,74.8,29.98,SE,135,0.0,0.0,86,0.00,,---,0.00,VWS V13.01,2013-06-25 07:34:00,
2013-06-25 03:35:00,79.3,74.8,29.97,SE,135,1.5,1.5,86,0.00,,---,0.00,VWS V13.01,2013-06-25 07:35:00,
2013-06-25 03:38:00,79.3,74.8,29.97,East,90,2.6,2.6,86,0.00,,---,0.00,VWS V13.01,2013-06-25 07:38:00,
2013-06-25 03:39:00,79.3,74.8,29.98,ESE,112,5.8,5.8,86,0.00,,---,0.00,VWS V13.01,2013-06-25 07:39:00,
2013-06-25 03:40:00,79.3,74.8,29.98,East,90,3.8,3.8,86,0.00,,---,0.00,VWS V13.01,2013-06-25 07:40:00,
2013-06-25 03:43:00,79.3,74.8,29.98,SSE,158,0.0,0.0,86,0.00,,---,0.00,VWS V13.01,2013-06-25 07:43:00,
2013-06-25 03:44:00,79.3,74.8,29.98,NE,45,3.5,3.5,86,0.00,,---,0.00,VWS V13.01,2013-06-25 07:44:00,
2013-06-25 03:45:00,79.3,74.8,29.98,ENE,68,1.5,1.5,86,0.00,,---,0.00,VWS V13.01,2013-06-25 07:45:00,
2013-06-25 03:48:00,79.3,74.8,29.97,ENE,68,3.8,3.8,86,0.00,,---,0.00,VWS V13.01,2013-06-25 07:48:00,
2013-06-25 03:49:00,79.3,74.8,29.98,ENE,68,0.0,0.0,86,0.00,,---,0.00,VWS V13.01,2013-06-25 07:49:00,
2013-06-25 03:50:00,79.3,74.8,29.97,ESE,112,0.0,0.0,86,0.00,,---,0.00,VWS V13.01,2013-06-25 07:50:00,
2013-06-25 03:53:00,79.3,74.8,29.98,ESE,112,0.0,0.0,86,0.00,,---,0.00,VWS V13.01,2013-06-25 07:53:00,
2013-06-25 03:54:00,79.3,74.8,29.98,ESE,112,0.0,0.0,86,0.00,,---,0.00,VWS V13.01,2013-06-25 07:54:00,
2013-06-25 03:55:00,79.3,74.8,29.98,SE,135,0.0,0.0,86,0.00,,---,0.00,VWS V13.01,2013-06-25 07:55:00,
2013-06-25 03:58:00,79.3,74.8,29.98,ESE,112,6.9,6.9,86,0.00,,---,0.00,VWS V13.01,2013-06-25 07:58:00,
2013-06-25 03:59:00,79.3,74.8,29.98,ESE,112,6.9,6.9,86,0.00,,---,0.00,VWS V13.01,2013-06-25 07:59:00,
2013-06-25 04:00:00,79.3,74.8,29.98,East,90,0.0,0.0,86,0.00,,---,0.00,VWS V13.01,2013-06-25 08:00:00,
2013-06-25 04:03:00,79.3,74.8,29.98,ENE,68,3.8,3.8,86,0.00,,---,0.00,VWS V13.01,2013-06-25 08:03:00,
2013-06-25 04:04:00,79.3,74.8,29.98,ENE,68,3.8,3.8,86,0.00,,---,0.00,VWS V13.01,2013-06-25 08:04:00,
2013-06-25 04:05:00,79.3,74.8,29.98,ESE,112,0.0,0.0,86,0.00,,---,0.00,VWS V13.01,2013-06-25 08:05:00,
2013-06-25 04:09:00,79.3,74.8,29.98,SE,135,0.0,0.0,86,0.00,,---,0.00,VWS V13.01,2013-06-25 08:09:00,
2013-06-25 04:10:00,79.3,74.8,29.98,ESE,112,3.5,3.5,86,0.00,,---,0.00,VWS V13.01,2013-06-25 08:10:00,
2013-06-25 04:14:00,79.3,74.8,29.98,SE,135,3.8,3.8,86,0.00,,---,0.00,VWS V13.01,2013-06-25 08:14:00,
2013-06-25 04:15:00,79.3,74.8,29.98,ESE,112,1.3,1.3,86,0.00,,---,0.00,VWS V13.01,2013-06-25 08:15:00,
2013-06-25 04:16:00,79.3,74.8,29.98,East,90,3.8,3.8,86,0.00,,---,0.00,VWS V13.01,2013-06-25 08:16:00,
2013-06-25 04:19:00,79.3,74.8,29.98,NE,45,1.5,1.5,86,0.00,,---,0.00,VWS V13.01,2013-06-25 08:19:00,
2013-06-25 04:20:00,79.3,74.8,29.98,ENE,68,4.2,4.2,86,0.00,,---,0.00,VWS V13.01,2013-06-25 08:20:00,
2013-06-25 04:21:00,79.3,74.8,29.98,ESE,112,6.9,6.9,86,0.00,,---,0.00,VWS V13.01,2013-06-25 08:21:00,
2013-06-25 04:24:00,79.3,74.8,29.97,SE,135,0.0,0.0,86,0.00,,---,0.00,VWS V13.01,2013-06-25 08:24:00,
2013-06-25 04:25:00,79.3,74.8,29.97,NE,45,5.8,5.8,86,0.00,,---,0.00,VWS V13.01,2013-06-25 08:25:00,
2013-06-25 04:26:00,79.3,74.8,29.98,East,90,6.4,6.4,86,0.00,,---,0.00,VWS V13.01,2013-06-25 08:26:00,
2013-06-25 04:29:00,79.3,74.8,29.98,ESE,112,5.8,5.8,86,0.00,,---,0.00,VWS V13.01,2013-06-25 08:29:00,
2013-06-25 04:30:00,79.3,74.8,29.98,ESE,112,1.7,1.7,86,0.00,,---,0.00,VWS V13.01,2013-06-25 08:30:00,
2013-06-25 04:31:00,79.3,74.8,29.98,East,90,2.0,2.0,86,0.00,,---,0.00,VWS V13.01,2013-06-25 08:31:00,
2013-06-25 04:34:00,79.3,74.8,29.98,North,0,0.0,0.0,86,0.00,,---,0.00,VWS V13.01,2013-06-25 08:34:00,
2013-06-25 04:35:00,79.3,74.8,29.98,SE,135,0.0,0.0,86,0.00,,---,0.00,VWS V13.01,2013-06-25 08:35:00,
2013-06-25 04:36:00,79.3,74.8,29.98,East,90,3.5,3.5,86,0.00,,---,0.00,VWS V13.01,2013-06-25 08:36:00,
2013-06-25 04:39:00,79.3,74.8,29.98,ESE,112,8.5,8.5,86,0.00,,---,0.00,VWS V13.01,2013-06-25 08:39:00,
2013-06-25 04:40:00,79.3,74.8,29.98,ENE,68,3.3,3.3,86,0.00,,---,0.00,VWS V13.01,2013-06-25 08:40:00,
2013-06-25 04:41:00,79.1,74.6,29.97,ENE,68,1.5,1.5,86,0.00,,---,0.00,VWS V13.01,2013-06-25 08:41:00,
2013-06-25 04:44:00,79.3,74.8,29.98,East,90,3.5,3.5,86,0.00,,---,0.00,VWS V13.01,2013-06-25 08:44:00,
2013-06-25 04:45:00,79.1,74.2,29.98,NE,45,0.0,0.0,85,0.00,,---,0.00,VWS V13.01,2013-06-25 08:45:00,
2013-06-25 04:46:00,79.1,74.2,29.98,ENE,68,4.6,4.6,85,0.00,,---,0.00,VWS V13.01,2013-06-25 08:46:00,
2013-06-25 04:49:00,79.1,74.2,29.98,East,90,1.5,1.5,85,0.00,,---,0.00,VWS V13.01,2013-06-25 08:49:00,
2013-06-25 04:50:00,79.1,74.2,29.98,ENE,68,3.1,3.1,85,0.00,,---,0.00,VWS V13.01,2013-06-25 08:50:00,
2013-06-25 04:51:00,79.1,74.6,29.98,East,90,2.9,2.9,86,0.00,,---,0.00,VWS V13.01,2013-06-25 08:51:00,
2013-06-25 04:54:00,79.1,74.6,29.98,ESE,112,2.4,2.4,86,0.00,,---,0.00,VWS V13.01,2013-06-25 08:54:00,
2013-06-25 04:55:00,79.1,74.6,29.98,East,90,2.0,2.0,86,0.00,,---,0.00,VWS V13.01,2013-06-25 08:55:00,
2013-06-25 04:56:00,79.1,74.6,29.98,ENE,68,6.0,6.0,86,0.00,,---,0.00,VWS V13.01,2013-06-25 08:56:00,
2013-06-25 04:59:00,79.1,74.6,29.98,NE,45,0.0,0.0,86,0.00,,---,0.00,VWS V13.01,2013-06-25 08:59:00,
2013-06-25 05:00:00,79.1,74.6,29.98,ENE,68,2.0,2.0,86,0.00,,---,0.00,VWS V13.01,2013-06-25 09:00:00,
2013-06-25 05:01:00,79.1,74.6,29.98,East,90,3.5,3.5,86,0.00,,---,0.00,VWS V13.01,2013-06-25 09:01:00,
2013-06-25 05:04:00,79.1,74.6,29.98,East,90,4.2,4.2,86,0.00,,---,0.00,VWS V13.01,2013-06-25 09:04:00,
2013-06-25 05:05:00,79.1,74.6,29.98,SSE,158,4.0,4.0,86,0.00,,---,0.00,VWS V13.01,2013-06-25 09:05:00,
2013-06-25 05:06:00,79.1,74.6,29.98,SSE,158,4.0,4.0,86,0.00,,---,0.00,VWS V13.01,2013-06-25 09:06:00,
2013-06-25 05:09:00,79.1,74.6,29.98,NE,45,3.5,3.5,86,0.00,,---,0.00,VWS V13.01,2013-06-25 09:09:00,
2013-06-25 05:10:00,79.1,74.6,29.99,East,90,2.4,2.4,86,0.00,,---,0.00,VWS V13.01,2013-06-25 09:10:00,
2013-06-25 05:11:00,79.1,74.6,29.99,East,90,2.4,2.4,86,0.00,,---,0.00,VWS V13.01,2013-06-25 09:11:00,
2013-06-25 05:14:00,79.1,74.6,29.98,ENE,68,0.0,4.4,86,0.00,,---,0.00,VWS V13.01,2013-06-25 09:14:00,
2013-06-25 05:16:00,79.1,74.6,29.98,East,90,6.0,6.0,86,0.00,,---,0.00,VWS V13.01,2013-06-25 09:16:00,
2013-06-25 05:17:00,79.1,74.6,29.98,East,90,0.0,0.0,86,0.00,,---,0.00,VWS V13.01,2013-06-25 09:17:00,
2013-06-25 05:19:00,79.1,74.6,29.98,ENE,68,4.0,4.0,86,0.00,,---,0.00,VWS V13.01,2013-06-25 09:19:00,
2013-06-25 05:20:00,79.1,74.6,29.98,East,90,2.2,2.2,86,0.00,,---,0.00,VWS V13.01,2013-06-25 09:20:00,
2013-06-25 05:21:00,79.1,74.6,29.98,East,90,2.2,2.2,86,0.00,,---,0.00,VWS V13.01,2013-06-25 09:21:00,
2013-06-25 05:22:00,79.1,74.6,29.98,SE,135,0.8,0.8,86,0.00,,---,0.00,VWS V13.01,2013-06-25 09:22:00,
2013-06-25 05:25:00,79.3,74.8,29.99,ESE,112,2.0,2.0,86,0.00,,---,0.00,VWS V13.01,2013-06-25 09:25:00,
2013-06-25 05:26:00,79.1,74.6,29.98,East,90,1.3,1.3,86,0.00,,---,0.00,VWS V13.01,2013-06-25 09:26:00,
2013-06-25 05:27:00,79.1,74.6,29.99,East,90,0.0,0.0,86,0.00,,---,0.00,VWS V13.01,2013-06-25 09:27:00,
2013-06-25 05:30:00,79.3,74.8,29.98,SE,135,3.3,3.3,86,0.00,,---,0.00,VWS V13.01,2013-06-25 09:30:00,
2013-06-25 05:31:00,79.3,74.8,29.98,SE,135,6.2,6.2,86,0.00,,---,0.00,VWS V13.01,2013-06-25 09:31:00,
2013-06-25 05:32:00,79.3,74.8,29.98,ESE,112,3.8,3.8,86,0.00,,---,0.00,VWS V13.01,2013-06-25 09:32:00,
2013-06-25 05:35:00,79.3,74.8,29.98,SSE,158,0.0,0.0,86,0.00,,---,0.00,VWS V13.01,2013-06-25 09:35:00,
2013-06-25 05:36:00,79.3,74.8,29.99,ESE,112,0.0,0.0,86,0.00,,---,0.00,VWS V13.01,2013-06-25 09:36:00,
2013-06-25 05:37:00,79.1,74.6,29.99,SSE,158,0.0,0.0,86,0.00,,---,0.00,VWS V13.01,2013-06-25 09:37:00,
2013-06-25 05:40:00,79.1,74.6,29.99,SSE,158,2.9,2.9,86,0.00,,---,0.00,VWS V13.01,2013-06-25 09:40:00,
2013-06-25 05:41:00,79.1,74.6,29.99,SSE,158,0.8,0.8,86,0.00,,---,0.00,VWS V13.01,2013-06-25 09:41:00,
2013-06-25 05:42:00,78.9,74.4,29.98,SE,135,2.2,2.2,86,0.00,,---,0.00,VWS V13.01,2013-06-25 09:42:00,
2013-06-25 05:45:00,78.9,74.4,29.98,SE,135,0.0,0.0,86,0.00,,---,0.00,VWS V13.01,2013-06-25 09:45:00,
2013-06-25 05:46:00,78.9,74.4,29.99,SE,135,2.2,2.2,86,0.00,,---,0.00,VWS V13.01,2013-06-25 09:46:00,
2013-06-25 05:47:00,78.9,74.4,29.99,SSE,158,1.5,1.5,86,0.00,,---,0.00,VWS V13.01,2013-06-25 09:47:00,
2013-06-25 05:50:00,78.9,74.4,29.99,South,180,2.2,2.2,86,0.00,,---,0.00,VWS V13.01,2013-06-25 09:50:00,
2013-06-25 05:51:00,78.9,74.4,29.99,South,180,0.0,0.0,86,0.00,,---,0.00,VWS V13.01,2013-06-25 09:51:00,
2013-06-25 05:52:00,78.9,74.4,29.99,SSE,158,2.4,2.4,86,0.00,,---,0.00,VWS V13.01,2013-06-25 09:52:00,
2013-06-25 05:55:00,78.8,74.3,29.99,SE,135,0.0,0.0,86,0.00,,---,0.00,VWS V13.01,2013-06-25 09:55:00,
2013-06-25 05:56:00,78.8,74.3,29.99,SSE,158,0.0,0.0,86,0.00,,---,0.00,VWS V13.01,2013-06-25 09:56:00,
2013-06-25 05:57:00,78.8,74.3,29.99,SSE,158,0.0,0.0,86,0.00,,---,0.00,VWS V13.01,2013-06-25 09:57:00,
2013-06-25 06:00:00,78.6,74.4,29.99,SSE,158,1.3,1.3,87,0.00,,---,0.00,VWS V13.01,2013-06-25 10:00:00,
2013-06-25 06:01:00,78.8,74.6,29.99,SSE,158,0.0,1.3,87,0.00,,---,0.00,VWS V13.01,2013-06-25 10:01:00,
2013-06-25 06:02:00,78.8,74.6,29.99,SSE,158,0.0,0.0,87,0.00,,---,0.00,VWS V13.01,2013-06-25 10:02:00,
2013-06-25 06:05:00,78.6,74.4,29.99,SSE,158,1.3,1.3,87,0.00,,---,0.00,VWS V13.01,2013-06-25 10:05:00,
2013-06-25 06:06:00,78.6,74.4,29.99,SE,135,0.0,0.0,87,0.00,,---,0.00,VWS V13.01,2013-06-25 10:06:00,
2013-06-25 06:07:00,78.6,74.4,29.99,SE,135,0.0,0.0,87,0.00,,---,0.00,VWS V13.01,2013-06-25 10:07:00,
2013-06-25 06:10:00,78.6,74.4,29.99,SSE,158,1.7,1.7,87,0.00,,---,0.00,VWS V13.01,2013-06-25 10:10:00,
2013-06-25 06:11:00,78.6,74.4,29.99,SSE,158,1.7,1.7,87,0.00,,---,0.00,VWS V13.01,2013-06-25 10:11:00,
2013-06-25 06:12:00,78.6,74.4,29.99,SSE,158,1.7,1.7,87,0.00,,---,0.00,VWS V13.01,2013-06-25 10:12:00,
2013-06-25 06:15:00,78.6,74.4,29.99,SSE,158,1.5,1.5,87,0.00,,---,0.00,VWS V13.01,2013-06-25 10:15:00,
2013-06-25 06:16:00,78.9,74.7,29.99,SSE,158,0.0,0.0,87,0.00,,---,0.00,VWS V13.01,2013-06-25 10:16:00,
2013-06-25 06:17:00,78.9,74.7,29.99,SSE,158,0.0,0.0,87,0.00,,---,0.00,VWS V13.01,2013-06-25 10:17:00,
2013-06-25 06:20:00,78.9,74.7,29.99,SSE,158,0.0,0.0,87,0.00,,---,0.00,VWS V13.01,2013-06-25 10:20:00,
2013-06-25 06:22:00,78.9,74.7,29.99,SSW,202,0.0,0.0,87,0.00,,---,0.00,VWS V13.01,2013-06-25 10:22:00,
2013-06-25 06:25:00,78.9,74.7,29.99,SE,135,1.5,1.5,87,0.00,,---,0.00,VWS V13.01,2013-06-25 10:25:00,
2013-06-25 06:27:00,78.9,74.7,29.99,SSE,158,0.0,0.0,87,0.00,,---,0.00,VWS V13.01,2013-06-25 10:27:00,
2013-06-25 06:30:00,78.9,74.7,29.99,SE,135,0.0,0.0,87,0.00,,---,0.00,VWS V13.01,2013-06-25 10:30:00,
2013-06-25 06:32:00,78.9,74.7,29.99,ESE,112,0.0,0.0,87,0.00,,---,0.00,VWS V13.01,2013-06-25 10:32:00,
2013-06-25 06:35:00,79.1,74.9,29.99,SSE,158,1.3,1.3,87,0.00,,---,0.00,VWS V13.01,2013-06-25 10:35:00,
2013-06-25 06:37:00,79.1,74.9,29.99,SSE,158,3.3,3.3,87,0.00,,---,0.00,VWS V13.01,2013-06-25 10:37:00,
2013-06-25 06:38:00,79.3,75.1,29.99,SE,135,2.0,2.0,87,0.00,,---,0.00,VWS V13.01,2013-06-25 10:38:00,
2013-06-25 06:40:00,79.3,75.1,29.99,SSE,158,2.0,2.0,87,0.00,,---,0.00,VWS V13.01,2013-06-25 10:40:00,
2013-06-25 06:41:00,79.3,75.1,29.99,SSE,158,2.0,2.0,87,0.00,,---,0.00,VWS V13.01,2013-06-25 10:41:00,
2013-06-25 06:42:00,79.3,75.1,29.99,SE,135,2.0,2.0,87,0.00,,---,0.00,VWS V13.01,2013-06-25 10:42:00,
2013-06-25 06:43:00,79.3,75.1,29.99,ESE,112,3.8,3.8,87,0.00,,---,0.00,VWS V13.01,2013-06-25 10:43:00,
2013-06-25 06:45:00,79.3,75.1,29.99,South,180,2.0,2.0,87,0.00,,---,0.00,VWS V13.01,2013-06-25 10:45:00,
2013-06-25 06:46:00,79.3,75.1,29.99,South,180,2.0,2.0,87,0.00,,---,0.00,VWS V13.01,2013-06-25 10:46:00,
2013-06-25 06:47:00,79.3,75.1,29.99,South,180,4.0,4.0,87,0.00,,---,0.00,VWS V13.01,2013-06-25 10:47:00,
2013-06-25 06:48:00,79.3,75.1,29.99,SSE,158,2.2,2.2,87,0.00,,---,0.00,VWS V13.01,2013-06-25 10:48:00,
2013-06-25 06:51:00,79.3,75.1,30.00,SSE,158,4.4,4.4,87,0.00,,---,0.00,VWS V13.01,2013-06-25 10:51:00,
2013-06-25 06:52:00,79.3,75.1,29.99,South,180,3.8,3.8,87,0.00,,---,0.00,VWS V13.01,2013-06-25 10:52:00,
2013-06-25 06:53:00,79.3,75.1,29.99,SSE,158,1.5,1.5,87,0.00,,---,0.00,VWS V13.01,2013-06-25 10:53:00,
2013-06-25 06:56:00,79.3,75.1,29.99,SSE,158,0.0,0.0,87,0.00,,---,0.00,VWS V13.01,2013-06-25 10:56:00,
2013-06-25 06:57:00,79.5,75.3,29.99,SSE,158,0.0,0.0,87,0.00,,---,0.00,VWS V13.01,2013-06-25 10:57:00,
2013-06-25 06:58:00,79.3,75.1,29.99,SSE,158,1.7,1.7,87,0.00,,---,0.00,VWS V13.01,2013-06-25 10:58:00,
2013-06-25 07:01:00,79.5,75.3,29.99,SE,135,0.0,0.0,87,0.00,,---,0.00,VWS V13.01,2013-06-25 11:01:00,
2013-06-25 07:02:00,79.5,75.3,29.99,South,180,2.2,2.2,87,0.00,,---,0.00,VWS V13.01,2013-06-25 11:02:00,
2013-06-25 07:03:00,79.5,75.3,29.99,SE,135,5.1,5.1,87,0.00,,---,0.00,VWS V13.01,2013-06-25 11:03:00,
2013-06-25 07:06:00,79.5,75.3,29.99,SE,135,0.0,0.0,87,0.00,,---,0.00,VWS V13.01,2013-06-25 11:06:00,
2013-06-25 07:07:00,79.5,75.3,29.99,SE,135,0.0,0.0,87,0.00,,---,0.00,VWS V13.01,2013-06-25 11:07:00,
2013-06-25 07:08:00,79.5,75.3,29.99,SSE,158,0.0,0.0,87,0.00,,---,0.00,VWS V13.01,2013-06-25 11:08:00,
2013-06-25 07:11:00,79.5,75.3,30.00,South,180,0.0,0.0,87,0.00,,---,0.00,VWS V13.01,2013-06-25 11:11:00,
2013-06-25 07:12:00,79.7,75.5,30.00,SSE,158,0.0,0.0,87,0.00,,---,0.00,VWS V13.01,2013-06-25 11:12:00,
2013-06-25 07:13:00,79.7,75.5,30.00,SSE,158,0.0,0.0,87,0.00,,---,0.00,VWS V13.01,2013-06-25 11:13:00,
2013-06-25 07:16:00,79.8,75.6,30.00,SE,135,0.0,0.0,87,0.00,,---,0.00,VWS V13.01,2013-06-25 11:16:00,
2013-06-25 07:17:00,79.8,75.6,30.00,SSW,202,0.0,0.0,87,0.00,,---,0.00,VWS V13.01,2013-06-25 11:17:00,
2013-06-25 07:18:00,79.8,75.6,30.00,SSW,202,0.0,0.0,87,0.00,,---,0.00,VWS V13.01,2013-06-25 11:18:00,
2013-06-25 07:21:00,80.4,76.2,30.00,South,180,0.0,0.0,87,0.00,,---,0.00,VWS V13.01,2013-06-25 11:21:00,
2013-06-25 07:22:00,80.4,76.2,30.00,SSE,158,1.3,1.3,87,0.00,,---,0.00,VWS V13.01,2013-06-25 11:22:00,
2013-06-25 07:23:00,80.4,76.2,30.00,SSE,158,1.3,1.3,87,0.00,,---,0.00,VWS V13.01,2013-06-25 11:23:00,
2013-06-25 07:26:00,80.6,76.0,30.00,East,90,2.6,2.6,86,0.00,,---,0.00,VWS V13.01,2013-06-25 11:26:00,
2013-06-25 07:27:00,80.7,76.1,29.99,SE,135,1.7,1.7,86,0.00,,---,0.00,VWS V13.01,2013-06-25 11:27:00,
2013-06-25 07:28:00,80.7,76.1,29.99,SE,135,1.7,1.7,86,0.00,,---,0.00,VWS V13.01,2013-06-25 11:28:00,
2013-06-25 07:31:00,80.9,76.3,30.00,SE,135,1.7,1.7,86,0.00,,---,0.00,VWS V13.01,2013-06-25 11:31:00,
2013-06-25 07:33:00,81.1,76.5,30.00,SE,135,2.0,2.0,86,0.00,,---,0.00,VWS V13.01,2013-06-25 11:33:00,
2013-06-25 07:36:00,81.1,76.5,30.00,SE,135,3.8,3.8,86,0.00,,---,0.00,VWS V13.01,2013-06-25 11:36:00,
2013-06-25 07:37:00,81.1,76.2,30.00,SE,135,4.9,4.9,85,0.00,,---,0.00,VWS V13.01,2013-06-25 11:37:00,
2013-06-25 07:38:00,81.1,76.2,30.00,SE,135,4.9,4.9,85,0.00,,---,0.00,VWS V13.01,2013-06-25 11:38:00,
2013-06-25 07:41:00,81.3,76.4,30.00,ESE,112,2.2,2.2,85,0.00,,---,0.00,VWS V13.01,2013-06-25 11:41:00,
2013-06-25 07:42:00,81.3,76.4,30.00,SE,135,2.2,2.2,85,0.00,,---,0.00,VWS V13.01,2013-06-25 11:42:00,
2013-06-25 07:43:00,81.3,76.4,30.00,SE,135,0.0,0.0,85,0.00,,---,0.00,VWS V13.01,2013-06-25 11:43:00,
2013-06-25 07:44:00,81.5,76.6,30.00,ENE,68,0.6,0.6,85,0.00,,---,0.00,VWS V13.01,2013-06-25 11:44:00,
2013-06-25 07:46:00,81.5,76.6,30.00,East,90,0.0,0.0,85,0.00,,---,0.00,VWS V13.01,2013-06-25 11:46:00,
2013-06-25 07:47:00,81.6,76.7,30.00,East,90,1.3,1.3,85,0.00,,---,0.00,VWS V13.01,2013-06-25 11:47:00,
2013-06-25 07:48:00,81.5,76.6,30.00,East,90,0.0,0.0,85,0.00,,---,0.00,VWS V13.01,2013-06-25 11:48:00,
2013-06-25 07:49:00,81.6,76.3,30.00,ENE,68,2.4,2.4,84,0.00,,---,0.00,VWS V13.01,2013-06-25 11:49:00,
2013-06-25 07:51:00,81.8,76.5,30.00,ENE,68,2.9,2.9,84,0.00,,---,0.00,VWS V13.01,2013-06-25 11:51:00,
2013-06-25 07:52:00,81.8,76.5,30.00,East,90,10.9,10.9,84,0.00,,---,0.00,VWS V13.01,2013-06-25 11:52:00,
2013-06-25 07:53:00,82.0,76.7,30.00,SE,135,6.7,6.7,84,0.00,,---,0.00,VWS V13.01,2013-06-25 11:53:00,
2013-06-25 07:54:00,82.0,76.7,30.00,East,90,4.6,4.6,84,0.00,,---,0.00,VWS V13.01,2013-06-25 11:54:00,
2013-06-25 07:56:00,82.0,76.7,30.00,SE,135,2.9,2.9,84,0.00,,---,0.00,VWS V13.01,2013-06-25 11:56:00,
2013-06-25 07:57:00,82.2,76.9,30.00,SSW,202,0.0,0.0,84,0.00,,---,0.00,VWS V13.01,2013-06-25 11:57:00,
2013-06-25 07:58:00,82.2,76.9,30.00,East,90,5.8,5.8,84,0.00,,---,0.00,VWS V13.01,2013-06-25 11:58:00,
2013-06-25 07:59:00,82.2,76.5,30.00,East,90,2.2,2.2,83,0.00,,---,0.00,VWS V13.01,2013-06-25 11:59:00,
2013-06-25 08:01:00,82.2,76.5,30.00,NE,45,1.5,1.5,83,0.00,,---,0.00,VWS V13.01,2013-06-25 12:01:00,
2013-06-25 08:02:00,82.5,76.8,30.00,NE,45,6.2,6.2,83,0.00,,---,0.00,VWS V13.01,2013-06-25 12:02:00,
2013-06-25 08:03:00,82.5,76.8,30.00,East,90,3.8,3.8,83,0.00,,---,0.00,VWS V13.01,2013-06-25 12:03:00,
2013-06-25 08:04:00,82.5,76.8,30.00,ENE,68,3.8,3.8,83,0.00,,---,0.00,VWS V13.01,2013-06-25 12:04:00,
2013-06-25 08:06:00,82.5,76.4,30.00,ENE,68,9.8,9.8,82,0.00,,---,0.00,VWS V13.01,2013-06-25 12:06:00,
2013-06-25 08:07:00,82.5,76.4,30.00,SE,135,4.4,4.4,82,0.00,,---,0.00,VWS V13.01,2013-06-25 12:07:00,
2013-06-25 08:08:00,82.7,76.7,30.00,East,90,10.5,10.5,82,0.00,,---,0.00,VWS V13.01,2013-06-25 12:08:00,
2013-06-25 08:09:00,82.7,76.7,30.00,ENE,68,11.4,11.4,82,0.00,,---,0.00,VWS V13.01,2013-06-25 12:09:00,
2013-06-25 08:11:00,82.7,76.7,30.00,NNE,22,3.1,3.1,82,0.00,,---,0.00,VWS V13.01,2013-06-25 12:11:00,
2013-06-25 08:12:00,82.7,76.7,30.01,NNE,22,1.5,1.5,82,0.00,,---,0.00,VWS V13.01,2013-06-25 12:12:00,
2013-06-25 08:13:00,82.9,76.8,30.01,ESE,112,4.2,4.2,82,0.00,,---,0.00,VWS V13.01,2013-06-25 12:13:00,
2013-06-25 08:14:00,82.9,76.5,30.01,ENE,68,8.2,8.2,81,0.00,,---,0.00,VWS V13.01,2013-06-25 12:14:00,
2013-06-25 08:15:00,82.9,76.5,30.01,East,90,0.6,0.6,81,0.00,,---,0.00,VWS V13.01,2013-06-25 12:15:00,
2013-06-25 08:16:00,82.9,76.5,30.01,SE,135,2.0,3.5,81,0.00,,---,0.00,VWS V13.01,2013-06-25 12:16:00,
2013-06-25 08:17:00,83.1,76.7,30.01,NE,45,0.0,0.0,81,0.00,,---,0.00,VWS V13.01,2013-06-25 12:17:00,
2013-06-25 08:18:00,83.1,76.7,30.01,NE,45,0.0,0.0,81,0.00,,---,0.00,VWS V13.01,2013-06-25 12:18:00,
2013-06-25 08:19:00,83.1,76.7,30.01,NE,45,8.0,8.0,81,0.00,,---,0.00,VWS V13.01,2013-06-25 12:19:00,
2013-06-25 08:20:00,83.1,76.7,30.01,SE,135,0.0,0.0,81,0.00,,---,0.00,VWS V13.01,2013-06-25 12:20:00,
2013-06-25 08:21:00,83.1,76.7,30.01,ESE,112,7.1,7.1,81,0.00,,---,0.00,VWS V13.01,2013-06-25 12:21:00,
2013-06-25 08:22:00,83.1,76.3,30.00,East,90,7.3,7.3,80,0.00,,---,0.00,VWS V13.01,2013-06-25 12:22:00,
2013-06-25 08:23:00,83.1,76.3,30.00,East,90,7.3,7.3,80,0.00,,---,0.00,VWS V13.01,2013-06-25 12:23:00,
2013-06-25 08:24:00,83.3,76.5,30.01,NE,45,6.4,6.4,80,0.00,,---,0.00,VWS V13.01,2013-06-25 12:24:00,
2013-06-25 08:25:00,83.3,76.5,30.01,East,90,9.8,9.8,80,0.00,,---,0.00,VWS V13.01,2013-06-25 12:25:00,
2013-06-25 08:26:00,83.4,76.6,30.01,NE,45,3.5,3.5,80,0.00,,---,0.00,VWS V13.01,2013-06-25 12:26:00,
2013-06-25 08:28:00,83.4,76.6,30.01,ENE,68,4.2,4.2,80,0.00,,---,0.00,VWS V13.01,2013-06-25 12:28:00,
2013-06-25 08:29:00,83.4,76.6,30.01,ENE,68,2.6,2.6,80,0.00,,---,0.00,VWS V13.01,2013-06-25 12:29:00,
2013-06-25 08:30:00,83.4,76.6,30.01,ESE,112,6.9,6.9,80,0.00,,---,0.00,VWS V13.01,2013-06-25 12:30:00,
2013-06-25 08:31:00,83.4,76.2,30.01,NE,45,1.7,1.7,79,0.00,,---,0.00,VWS V13.01,2013-06-25 12:31:00,
2013-06-25 08:33:00,83.4,76.2,30.01,NE,45,3.3,3.3,79,0.00,,---,0.00,VWS V13.01,2013-06-25 12:33:00,
2013-06-25 08:34:00,83.6,76.4,30.01,ENE,68,8.5,8.5,79,0.00,,---,0.00,VWS V13.01,2013-06-25 12:34:00,
2013-06-25 08:35:00,83.8,76.6,30.02,East,90,4.2,4.2,79,0.00,,---,0.00,VWS V13.01,2013-06-25 12:35:00,
2013-06-25 08:36:00,83.8,76.6,30.01,East,90,10.5,10.5,79,0.00,,---,0.00,VWS V13.01,2013-06-25 12:36:00,
2013-06-25 08:38:00,83.8,76.6,30.01,ENE,68,7.3,7.3,79,0.00,,---,0.00,VWS V13.01,2013-06-25 12:38:00,
2013-06-25 08:39:00,84.0,76.8,30.02,NE,45,4.4,4.4,79,0.00,,---,0.00,VWS V13.01,2013-06-25 12:39:00,
2013-06-25 08:40:00,84.0,76.8,30.02,NE,45,6.4,6.4,79,0.00,,---,0.00,VWS V13.01,2013-06-25 12:40:00,
2013-06-25 08:41:00,84.0,76.8,30.02,ENE,68,11.1,11.1,79,0.00,,---,0.00,VWS V13.01,2013-06-25 12:41:00,
2013-06-25 08:43:00,84.0,76.4,30.02,ENE,68,8.2,8.2,78,0.00,,---,0.00,VWS V13.01,2013-06-25 12:43:00,
2013-06-25 08:44:00,84.0,76.4,30.02,ESE,112,6.9,6.9,78,0.00,,---,0.00,VWS V13.01,2013-06-25 12:44:00,
2013-06-25 08:45:00,84.0,76.4,30.02,East,90,4.9,5.5,78,0.00,,---,0.00,VWS V13.01,2013-06-25 12:45:00,
2013-06-25 08:46:00,84.2,76.6,30.02,ESE,112,10.9,10.9,78,0.00,,---,0.00,VWS V13.01,2013-06-25 12:46:00,
2013-06-25 08:48:00,84.0,76.4,30.02,ESE,112,7.6,7.6,78,0.00,,---,0.00,VWS V13.01,2013-06-25 12:48:00,
2013-06-25 08:49:00,84.2,76.6,30.02,ESE,112,5.1,5.1,78,0.00,,---,0.00,VWS V13.01,2013-06-25 12:49:00,
2013-06-25 08:50:00,84.3,76.7,30.02,ENE,68,8.2,12.5,78,0.00,,---,0.00,VWS V13.01,2013-06-25 12:50:00,
2013-06-25 08:51:00,84.2,76.6,30.02,ENE,68,6.9,6.9,78,0.00,,---,0.00,VWS V13.01,2013-06-25 12:51:00,
2013-06-25 08:53:00,84.3,76.7,30.02,ENE,68,9.1,9.1,78,0.00,,---,0.00,VWS V13.01,2013-06-25 12:53:00,
2013-06-25 08:54:00,84.3,76.7,30.02,East,90,8.5,8.5,78,0.00,,---,0.00,VWS V13.01,2013-06-25 12:54:00,
2013-06-25 08:55:00,84.3,76.7,30.02,ENE,68,6.2,6.2,78,0.00,,---,0.00,VWS V13.01,2013-06-25 12:55:00,
2013-06-25 08:56:00,84.3,76.7,30.02,ENE,68,10.5,10.5,78,0.00,,---,0.00,VWS V13.01,2013-06-25 12:56:00,
2013-06-25 08:58:00,84.3,76.7,30.02,South,180,0.0,0.0,78,0.00,,---,0.00,VWS V13.01,2013-06-25 12:58:00,
2013-06-25 08:59:00,84.5,76.9,30.02,ENE,68,4.2,4.2,78,0.00,,---,0.00,VWS V13.01,2013-06-25 12:59:00,
2013-06-25 09:00:00,84.7,77.1,30.02,East,90,6.7,6.7,78,0.00,,---,0.00,VWS V13.01,2013-06-25 13:00:00,
2013-06-25 09:01:00,84.7,77.1,30.02,ENE,68,6.9,6.9,78,0.00,,---,0.00,VWS V13.01,2013-06-25 13:01:00,
2013-06-25 09:03:00,84.7,77.1,30.02,ENE,68,9.8,9.8,78,0.00,,---,0.00,VWS V13.01,2013-06-25 13:03:00,
2013-06-25 09:04:00,84.7,77.1,30.02,East,90,5.5,5.5,78,0.00,,---,0.00,VWS V13.01,2013-06-25 13:04:00,
2013-06-25 09:05:00,84.7,76.7,30.02,NE,45,4.9,5.1,77,0.00,,---,0.00,VWS V13.01,2013-06-25 13:05:00,
2013-06-25 09:06:00,84.9,76.9,30.02,ENE,68,8.9,8.9,77,0.00,,---,0.00,VWS V13.01,2013-06-25 13:06:00,
2013-06-25 09:08:00,84.9,76.9,30.02,ENE,68,6.4,6.4,77,0.00,,---,0.00,VWS V13.01,2013-06-25 13:08:00,
2013-06-25 09:09:00,84.7,76.7,30.02,ENE,68,1.7,1.7,77,0.00,,---,0.00,VWS V13.01,2013-06-25 13:09:00,
2013-06-25 09:10:00,84.9,76.9,30.02,ENE,68,7.3,7.3,77,0.00,,---,0.00,VWS V13.01,2013-06-25 13:10:00,
2013-06-25 09:11:00,84.7,76.7,30.02,ENE,68,5.5,7.3,77,0.00,,---,0.00,VWS V13.01,2013-06-25 13:11:00,
2013-06-25 09:13:00,84.9,76.9,30.02,ENE,68,5.3,5.3,77,0.00,,---,0.00,VWS V13.01,2013-06-25 13:13:00,
2013-06-25 09:14:00,84.9,76.9,30.02,NE,45,5.3,5.3,77,0.00,,---,0.00,VWS V13.01,2013-06-25 13:14:00,
2013-06-25 09:15:00,84.9,76.9,30.02,ENE,68,9.8,9.8,77,0.00,,---,0.00,VWS V13.01,2013-06-25 13:15:00,
2013-06-25 09:16:00,84.9,76.9,30.02,ENE,68,8.5,9.8,77,0.00,,---,0.00,VWS V13.01,2013-06-25 13:16:00,
2013-06-25 09:18:00,84.9,76.9,30.02,ENE,68,10.7,10.7,77,0.00,,---,0.00,VWS V13.01,2013-06-25 13:18:00,
2013-06-25 09:19:00,84.7,76.7,30.03,ENE,68,6.9,6.9,77,0.00,,---,0.00,VWS V13.01,2013-06-25 13:19:00,
2013-06-25 09:20:00,84.9,76.9,30.02,ENE,68,8.5,8.5,77,0.00,,---,0.00,VWS V13.01,2013-06-25 13:20:00,
2013-06-25 09:21:00,84.9,76.9,30.02,ENE,68,8.0,8.0,77,0.00,,---,0.00,VWS V13.01,2013-06-25 13:21:00,
2013-06-25 09:23:00,84.7,76.7,30.02,East,90,0.0,0.0,77,0.00,,---,0.00,VWS V13.01,2013-06-25 13:23:00,
2013-06-25 09:24:00,84.9,76.9,30.02,ESE,112,4.6,4.6,77,0.00,,---,0.00,VWS V13.01,2013-06-25 13:24:00,
2013-06-25 09:25:00,84.9,76.9,30.02,SE,135,0.8,0.8,77,0.00,,---,0.00,VWS V13.01,2013-06-25 13:25:00,
2013-06-25 09:27:00,84.9,76.9,30.02,ENE,68,4.0,4.0,77,0.00,,---,0.00,VWS V13.01,2013-06-25 13:27:00,
2013-06-25 09:28:00,85.1,77.1,30.02,ENE,68,3.5,3.5,77,0.00,,---,0.00,VWS V13.01,2013-06-25 13:28:00,
2013-06-25 09:29:00,85.2,77.2,30.02,ENE,68,2.0,2.0,77,0.00,,---,0.00,VWS V13.01,2013-06-25 13:29:00,
2013-06-25 09:30:00,85.2,77.2,30.02,ENE,68,2.0,2.0,77,0.00,,---,0.00,VWS V13.01,2013-06-25 13:30:00,
2013-06-25 09:32:00,85.2,77.2,30.02,East,90,4.0,4.0,77,0.00,,---,0.00,VWS V13.01,2013-06-25 13:32:00,
2013-06-25 09:33:00,85.2,77.2,30.02,ENE,68,0.0,2.0,77,0.00,,---,0.00,VWS V13.01,2013-06-25 13:33:00,
2013-06-25 09:34:00,85.2,77.2,30.02,East,90,2.0,2.0,77,0.00,,---,0.00,VWS V13.01,2013-06-25 13:34:00,
2013-06-25 09:35:00,85.2,77.2,30.02,East,90,2.0,2.0,77,0.00,,---,0.00,VWS V13.01,2013-06-25 13:35:00,
2013-06-25 09:36:00,85.2,77.2,30.02,NE,45,6.0,6.0,77,0.00,,---,0.00,VWS V13.01,2013-06-25 13:36:00,
2013-06-25 09:37:00,85.2,77.2,30.02,ENE,68,3.5,3.5,77,0.00,,---,0.00,VWS V13.01,2013-06-25 13:37:00,
2013-06-25 09:38:00,85.6,77.6,30.02,East,90,6.9,6.9,77,0.00,,---,0.00,VWS V13.01,2013-06-25 13:38:00,
2013-06-25 09:39:00,85.6,77.6,30.02,East,90,8.9,8.9,77,0.00,,---,0.00,VWS V13.01,2013-06-25 13:39:00,
2013-06-25 09:40:00,85.6,77.6,30.02,East,90,8.9,8.9,77,0.00,,---,0.00,VWS V13.01,2013-06-25 13:40:00,
2013-06-25 09:41:00,85.6,77.6,30.02,East,90,7.3,7.3,77,0.00,,---,0.00,VWS V13.01,2013-06-25 13:41:00,
2013-06-25 09:42:00,85.6,77.2,30.02,SE,135,0.0,0.0,76,0.00,,---,0.00,VWS V13.01,2013-06-25 13:42:00,
2013-06-25 09:43:00,85.8,77.4,30.02,ENE,68,0.6,0.6,76,0.00,,---,0.00,VWS V13.01,2013-06-25 13:43:00,
2013-06-25 09:45:00,85.8,77.4,30.02,East,90,11.1,11.1,76,0.00,,---,0.00,VWS V13.01,2013-06-25 13:45:00,
2013-06-25 09:46:00,85.8,77.4,30.02,ENE,68,6.2,6.2,76,0.00,,---,0.00,VWS V13.01,2013-06-25 13:46:00,
2013-06-25 09:47:00,85.8,77.4,30.02,ENE,68,11.1,11.1,76,0.00,,---,0.00,VWS V13.01,2013-06-25 13:47:00,
2013-06-25 09:49:00,85.8,77.0,30.02,ENE,68,4.0,4.0,75,0.00,,---,0.00,VWS V13.01,2013-06-25 13:49:00,
2013-06-25 09:50:00,86.0,77.2,30.02,ESE,112,7.3,7.3,75,0.00,,---,0.00,VWS V13.01,2013-06-25 13:50:00,
2013-06-25 09:51:00,86.1,77.2,30.02,ENE,68,4.6,4.6,75,0.00,,---,0.00,VWS V13.01,2013-06-25 13:51:00,
2013-06-25 09:52:00,86.1,77.2,30.02,East,90,5.3,5.3,75,0.00,,---,0.00,VWS V13.01,2013-06-25 13:52:00,
2013-06-25 09:54:00,86.1,77.2,30.02,ENE,68,7.8,7.8,75,0.00,,---,0.00,VWS V13.01,2013-06-25 13:54:00,
2013-06-25 09:55:00,86.3,77.4,30.02,ENE,68,7.6,7.6,75,0.00,,---,0.00,VWS V13.01,2013-06-25 13:55:00,
2013-06-25 09:56:00,86.5,77.6,30.02,East,90,2.9,2.9,75,0.00,,---,0.00,VWS V13.01,2013-06-25 13:56:00,
2013-06-25 09:57:00,86.5,77.6,30.02,SE,135,1.5,1.5,75,0.00,,---,0.00,VWS V13.01,2013-06-25 13:57:00,
2013-06-25 09:59:00,86.5,77.6,30.02,ENE,68,6.4,6.4,75,0.00,,---,0.00,VWS V13.01,2013-06-25 13:59:00,
2013-06-25 10:00:00,86.7,77.8,30.02,ENE,68,8.7,8.7,75,0.00,,---,0.00,VWS V13.01,2013-06-25 14:00:00,
2013-06-25 10:01:00,86.7,77.4,30.02,ENE,68,9.1,9.1,74,0.00,,---,0.00,VWS V13.01,2013-06-25 14:01:00,
2013-06-25 10:02:00,86.7,77.4,30.02,ENE,68,7.6,7.6,74,0.00,,---,0.00,VWS V13.01,2013-06-25 14:02:00,
2013-06-25 10:04:00,86.7,77.4,30.02,East,90,7.3,7.3,74,0.00,,---,0.00,VWS V13.01,2013-06-25 14:04:00,
2013-06-25 10:05:00,86.7,77.4,30.02,ENE,68,10.2,10.2,74,0.00,,---,0.00,VWS V13.01,2013-06-25 14:05:00,
2013-06-25 10:06:00,86.7,77.4,30.03,East,90,8.5,8.5,74,0.00,,---,0.00,VWS V13.01,2013-06-25 14:06:00,
2013-06-25 10:07:00,86.7,77.4,30.03,ENE,68,8.2,8.2,74,0.00,,---,0.00,VWS V13.01,2013-06-25 14:07:00,
2013-06-25 10:09:00,86.7,77.4,30.03,NE,45,7.3,7.3,74,0.00,,---,0.00,VWS V13.01,2013-06-25 14:09:00,
2013-06-25 10:10:00,86.7,77.4,30.03,ENE,68,13.8,13.8,74,0.00,,---,0.00,VWS V13.01,2013-06-25 14:10:00,
2013-06-25 10:11:00,86.7,77.4,30.03,ENE,68,14.5,14.5,74,0.00,,---,0.00,VWS V13.01,2013-06-25 14:11:00,
2013-06-25 10:12:00,86.7,77.4,30.03,ENE,68,13.8,13.8,74,0.00,,---,0.00,VWS V13.01,2013-06-25 14:12:00,
2013-06-25 10:14:00,86.7,77.4,30.03,ENE,68,11.4,11.4,74,0.00,,---,0.00,VWS V13.01,2013-06-25 14:14:00,
2013-06-25 10:15:00,86.7,77.4,30.03,East,90,6.9,6.9,74,0.00,,---,0.00,VWS V13.01,2013-06-25 14:15:00,
2013-06-25 10:16:00,86.7,77.4,30.03,ENE,68,8.9,8.9,74,0.00,,---,0.00,VWS V13.01,2013-06-25 14:16:00,
2013-06-25 10:18:00,86.7,77.4,30.03,NE,45,5.3,5.3,74,0.00,,---,0.00,VWS V13.01,2013-06-25 14:18:00,
2013-06-25 10:19:00,86.7,77.4,30.03,NE,45,11.4,11.4,74,0.00,,---,0.00,VWS V13.01,2013-06-25 14:19:00,
2013-06-25 10:20:00,86.7,77.4,30.03,ENE,68,14.9,14.9,74,0.00,,---,0.00,VWS V13.01,2013-06-25 14:20:00,
2013-06-25 10:21:00,86.7,77.4,30.03,ENE,68,6.9,6.9,74,0.00,,---,0.00,VWS V13.01,2013-06-25 14:21:00,
2013-06-25 10:23:00,86.7,77.4,30.02,NE,45,8.7,8.7,74,0.00,,---,0.00,VWS V13.01,2013-06-25 14:23:00,
2013-06-25 10:24:00,86.7,77.4,30.03,ENE,68,9.1,9.1,74,0.00,,---,0.00,VWS V13.01,2013-06-25 14:24:00,
2013-06-25 10:25:00,86.7,77.4,30.03,East,90,12.3,12.3,74,0.00,,---,0.00,VWS V13.01,2013-06-25 14:25:00,
2013-06-25 10:26:00,86.7,77.4,30.02,ENE,68,10.0,10.0,74,0.00,,---,0.00,VWS V13.01,2013-06-25 14:26:00,
2013-06-25 10:28:00,86.7,77.4,30.03,ENE,68,7.3,7.3,74,0.00,,---,0.00,VWS V13.01,2013-06-25 14:28:00,
2013-06-25 10:29:00,86.9,77.6,30.03,NE,45,3.5,3.5,74,0.00,,---,0.00,VWS V13.01,2013-06-25 14:29:00,
2013-06-25 10:30:00,86.9,77.6,30.03,ENE,68,6.4,6.4,74,0.00,,---,0.00,VWS V13.01,2013-06-25 14:30:00,
2013-06-25 10:31:00,87.0,77.7,30.03,NE,45,10.0,10.0,74,0.00,,---,0.00,VWS V13.01,2013-06-25 14:31:00,
2013-06-25 10:33:00,87.0,77.7,30.03,NE,45,11.4,11.4,74,0.00,,---,0.00,VWS V13.01,2013-06-25 14:33:00,
2013-06-25 10:34:00,87.0,77.3,30.03,East,90,9.1,9.1,73,0.00,,---,0.00,VWS V13.01,2013-06-25 14:34:00,
2013-06-25 10:35:00,87.0,77.3,30.03,NE,45,9.1,9.1,73,0.00,,---,0.00,VWS V13.01,2013-06-25 14:35:00,
2013-06-25 10:36:00,87.0,77.3,30.02,ENE,68,4.9,4.9,73,0.00,,---,0.00,VWS V13.01,2013-06-25 14:36:00,
2013-06-25 10:38:00,87.0,77.3,30.03,East,90,8.5,8.5,73,0.00,,---,0.00,VWS V13.01,2013-06-25 14:38:00,
2013-06-25 10:39:00,87.0,77.3,30.03,ESE,112,4.4,4.4,73,0.00,,---,0.00,VWS V13.01,2013-06-25 14:39:00,
2013-06-25 10:40:00,87.0,77.3,30.03,East,90,10.7,10.7,73,0.00,,---,0.00,VWS V13.01,2013-06-25 14:40:00,
2013-06-25 10:41:00,87.0,77.3,30.03,ENE,68,2.0,2.0,73,0.00,,---,0.00,VWS V13.01,2013-06-25 14:41:00,
2013-06-25 10:43:00,87.0,77.3,30.03,ENE,68,7.6,7.6,73,0.00,,---,0.00,VWS V13.01,2013-06-25 14:43:00,
2013-06-25 10:44:00,87.0,77.3,30.03,ENE,68,7.3,7.3,73,0.00,,---,0.00,VWS V13.01,2013-06-25 14:44:00,
2013-06-25 10:45:00,87.0,77.7,30.03,ENE,68,15.8,15.8,74,0.00,,---,0.00,VWS V13.01,2013-06-25 14:45:00,
2013-06-25 10:46:00,87.0,77.3,30.03,ENE,68,2.6,2.6,73,0.00,,---,0.00,VWS V13.01,2013-06-25 14:46:00,
2013-06-25 10:48:00,87.0,77.3,30.03,ENE,68,6.0,6.0,73,0.00,,---,0.00,VWS V13.01,2013-06-25 14:48:00,
2013-06-25 10:49:00,87.0,77.3,30.03,East,90,4.9,4.9,73,0.00,,---,0.00,VWS V13.01,2013-06-25 14:49:00,
2013-06-25 10:50:00,87.0,77.3,30.03,East,90,4.9,4.9,73,0.00,,---,0.00,VWS V13.01,2013-06-25 14:50:00,
2013-06-25 10:51:00,87.0,77.3,30.03,NNE,22,7.3,7.3,73,0.00,,---,0.00,VWS V13.01,2013-06-25 14:51:00,
2013-06-25 10:52:00,87.0,77.3,30.03,ENE,68,4.2,4.2,73,0.00,,---,0.00,VWS V13.01,2013-06-25 14:52:00,
2013-06-25 10:53:00,87.0,77.3,30.03,East,90,10.7,10.7,73,0.00,,---,0.00,VWS V13.01,2013-06-25 14:53:00,
2013-06-25 10:55:00,87.0,77.3,30.03,East,90,0.0,0.0,73,0.00,,---,0.00,VWS V13.01,2013-06-25 14:55:00,
2013-06-25 10:56:00,87.0,77.3,30.03,NNE,22,5.5,5.5,73,0.00,,---,0.00,VWS V13.01,2013-06-25 14:56:00,
2013-06-25 10:57:00,87.4,77.7,30.03,NE,45,8.9,8.9,73,0.00,,---,0.00,VWS V13.01,2013-06-25 14:57:00,
2013-06-25 10:58:00,87.2,77.5,30.03,ENE,68,14.7,14.7,73,0.00,,---,0.00,VWS V13.01,2013-06-25 14:58:00,
2013-06-25 11:00:00,87.4,77.3,30.03,ESE,112,12.7,12.7,72,0.00,,---,0.00,VWS V13.01,2013-06-25 15:00:00,
2013-06-25 11:01:00,87.2,77.1,30.03,ENE,68,8.5,8.5,72,0.00,,---,0.00,VWS V13.01,2013-06-25 15:01:00,
2013-06-25 11:02:00,87.2,77.1,30.02,East,90,5.5,5.5,72,0.00,,---,0.00,VWS V13.01,2013-06-25 15:02:00,
2013-06-25 11:03:00,87.2,77.1,30.02,ENE,68,5.8,5.8,72,0.00,,---,0.00,VWS V13.01,2013-06-25 15:03:00,
2013-06-25 11:05:00,87.2,77.5,30.02,East,90,12.0,12.0,73,0.00,,---,0.00,VWS V13.01,2013-06-25 15:05:00,
2013-06-25 11:06:00,87.2,77.5,30.02,NNE,22,3.3,3.3,73,0.00,,---,0.00,VWS V13.01,2013-06-25 15:06:00,
2013-06-25 11:07:00,87.0,77.3,30.02,NE,45,6.4,6.4,73,0.00,,---,0.00,VWS V13.01,2013-06-25 15:07:00,
2013-06-25 11:08:00,87.2,77.5,30.03,NE,45,4.2,4.2,73,0.00,,---,0.00,VWS V13.01,2013-06-25 15:08:00,
2013-06-25 11:10:00,87.2,77.5,30.03,NNE,22,5.8,5.8,73,0.00,,---,0.00,VWS V13.01,2013-06-25 15:10:00,
2013-06-25 11:11:00,87.4,77.7,30.02,NE,45,8.7,8.7,73,0.00,,---,0.00,VWS V13.01,2013-06-25 15:11:00,
2013-06-25 11:12:00,87.4,77.7,30.02,ENE,68,6.0,6.0,73,0.00,,---,0.00,VWS V13.01,2013-06-25 15:12:00,
2013-06-25 11:13:00,87.4,77.7,30.02,NE,45,2.9,2.9,73,0.00,,---,0.00,VWS V13.01,2013-06-25 15:13:00,
2013-06-25 11:15:00,87.4,77.3,30.02,ENE,68,4.6,4.6,72,0.00,,---,0.00,VWS V13.01,2013-06-25 15:15:00,
2013-06-25 11:16:00,87.4,77.3,30.02,NE,45,6.9,6.9,72,0.00,,---,0.00,VWS V13.01,2013-06-25 15:16:00,
2013-06-25 11:17:00,87.4,77.3,30.01,East,90,12.7,12.7,72,0.00,,---,0.00,VWS V13.01,2013-06-25 15:17:00,
2013-06-25 11:19:00,87.4,77.3,30.02,East,90,6.0,6.0,72,0.00,,---,0.00,VWS V13.01,2013-06-25 15:19:00,
2013-06-25 11:20:00,87.4,77.3,30.01,NE,45,12.7,12.7,72,0.00,,---,0.00,VWS V13.01,2013-06-25 15:20:00,
2013-06-25 11:21:00,87.4,77.3,30.01,ENE,68,12.0,12.0,72,0.00,,---,0.00,VWS V13.01,2013-06-25 15:21:00,
2013-06-25 11:22:00,87.4,77.3,30.02,East,90,9.8,9.8,72,0.00,,---,0.00,VWS V13.01,2013-06-25 15:22:00,
2013-06-25 11:24:00,87.4,77.3,30.01,ENE,68,7.6,7.6,72,0.00,,---,0.00,VWS V13.01,2013-06-25 15:24:00,
2013-06-25 11:25:00,87.4,77.3,30.01,East,90,6.9,6.9,72,0.00,,---,0.00,VWS V13.01,2013-06-25 15:25:00,
2013-06-25 11:26:00,87.6,77.5,30.01,East,90,9.8,9.8,72,0.00,,---,0.00,VWS V13.01,2013-06-25 15:26:00,
2013-06-25 11:27:00,87.6,77.5,30.01,ENE,68,11.4,11.4,72,0.00,,---,0.00,VWS V13.01,2013-06-25 15:27:00,
2013-06-25 11:29:00,87.6,77.5,30.01,East,90,8.2,8.2,72,0.00,,---,0.00,VWS V13.01,2013-06-25 15:29:00,
2013-06-25 11:30:00,87.6,77.5,30.01,East,90,11.6,11.6,72,0.00,,---,0.00,VWS V13.01,2013-06-25 15:30:00,
2013-06-25 11:31:00,87.6,77.5,30.01,SE,135,7.1,7.1,72,0.00,,---,0.00,VWS V13.01,2013-06-25 15:31:00,
2013-06-25 11:32:00,87.6,77.5,30.01,ESE,112,5.1,5.1,72,0.00,,---,0.00,VWS V13.01,2013-06-25 15:32:00,
2013-06-25 11:34:00,87.6,77.0,30.01,ENE,68,12.9,12.9,71,0.00,,---,0.00,VWS V13.01,2013-06-25 15:34:00,
2013-06-25 11:35:00,87.6,77.0,30.01,East,90,5.3,5.3,71,0.00,,---,0.00,VWS V13.01,2013-06-25 15:35:00,
2013-06-25 11:36:00,87.6,77.0,30.01,SE,135,8.0,8.0,71,0.00,,---,0.00,VWS V13.01,2013-06-25 15:36:00,
2013-06-25 11:37:00,87.6,77.0,30.01,East,90,7.6,7.6,71,0.00,,---,0.00,VWS V13.01,2013-06-25 15:37:00,
2013-06-25 11:39:00,87.6,77.0,30.01,East,90,8.0,8.0,71,0.00,,---,0.00,VWS V13.01,2013-06-25 15:39:00,
2013-06-25 11:40:00,87.6,77.0,30.01,East,90,8.9,8.9,71,0.00,,---,0.00,VWS V13.01,2013-06-25 15:40:00,
2013-06-25 11:41:00,87.6,77.0,30.01,East,90,6.9,6.9,71,0.00,,---,0.00,VWS V13.01,2013-06-25 15:41:00,
2013-06-25 11:42:00,87.6,77.5,30.01,ESE,112,4.0,4.0,72,0.00,,---,0.00,VWS V13.01,2013-06-25 15:42:00,
2013-06-25 11:44:00,87.6,77.5,30.01,East,90,9.8,9.8,72,0.00,,---,0.00,VWS V13.01,2013-06-25 15:44:00,
2013-06-25 11:45:00,87.6,77.5,30.01,East,90,12.9,12.9,72,0.00,,---,0.00,VWS V13.01,2013-06-25 15:45:00,
2013-06-25 11:46:00,87.6,77.5,30.01,ENE,68,8.2,8.2,72,0.00,,---,0.00,VWS V13.01,2013-06-25 15:46:00,
2013-06-25 11:47:00,87.6,77.5,30.01,North,0,4.6,4.6,72,0.00,,---,0.00,VWS V13.01,2013-06-25 15:47:00,
2013-06-25 11:48:00,87.6,77.5,30.01,ESE,112,11.4,11.4,72,0.00,,---,0.00,VWS V13.01,2013-06-25 15:48:00,
2013-06-25 11:49:00,87.6,77.5,30.01,ENE,68,8.9,8.9,72,0.00,,---,0.00,VWS V13.01,2013-06-25 15:49:00,
2013-06-25 11:50:00,87.6,77.0,30.01,NE,45,11.4,11.4,71,0.00,,---,0.00,VWS V13.01,2013-06-25 15:50:00,
2013-06-25 11:51:00,87.6,77.0,30.01,NE,45,4.9,4.9,71,0.00,,---,0.00,VWS V13.01,2013-06-25 15:51:00,
2013-06-25 11:52:00,87.6,77.0,30.01,ENE,68,8.9,8.9,71,0.00,,---,0.00,VWS V13.01,2013-06-25 15:52:00,
2013-06-25 11:53:00,87.6,77.0,30.01,East,90,11.1,11.1,71,0.00,,---,0.00,VWS V13.01,2013-06-25 15:53:00,
2013-06-25 11:54:00,87.6,77.0,30.00,East,90,10.2,10.2,71,0.00,,---,0.00,VWS V13.01,2013-06-25 15:54:00,
2013-06-25 11:55:00,87.6,77.0,30.01,East,90,12.0,12.0,71,0.00,,---,0.00,VWS V13.01,2013-06-25 15:55:00,
2013-06-25 11:56:00,87.6,77.0,30.01,ESE,112,5.5,12.0,71,0.00,,---,0.33,VWS V13.01,2013-06-25 15:56:00,
2013-06-25 11:57:00,87.6,77.0,30.01,ESE,112,5.5,5.5,71,0.00,,---,0.00,VWS V13.01,2013-06-25 15:57:00,
2013-06-25 11:58:00,87.6,77.0,30.01,East,90,6.7,6.7,71,0.00,,---,0.00,VWS V13.01,2013-06-25 15:58:00,
2013-06-25 11:59:00,87.6,77.0,30.01,North,0,0.0,0.0,71,0.00,,---,0.00,VWS V13.01,2013-06-25 15:59:00,
2013-06-25 12:00:00,87.6,77.0,30.01,East,90,12.0,13.6,71,0.00,,---,0.00,VWS V13.01,2013-06-25 16:00:00,
2013-06-25 12:01:00,87.6,77.0,30.01,NE,45,11.6,11.6,71,0.00,,---,0.00,VWS V13.01,2013-06-25 16:01:00,
2013-06-25 12:02:00,87.6,77.0,30.01,NE,45,11.6,11.6,71,0.00,,---,0.00,VWS V13.01,2013-06-25 16:02:00,
2013-06-25 12:03:00,87.6,77.0,30.01,ENE,68,5.5,5.5,71,0.00,,---,0.00,VWS V13.01,2013-06-25 16:03:00,
2013-06-25 12:04:00,87.6,77.0,30.01,ESE,112,6.0,6.0,71,0.00,,---,0.00,VWS V13.01,2013-06-25 16:04:00,
2013-06-25 12:05:00,87.6,77.0,30.01,ENE,68,10.9,10.9,71,0.00,,---,0.00,VWS V13.01,2013-06-25 16:05:00,
2013-06-25 12:07:00,87.8,77.2,30.01,ENE,68,12.9,12.9,71,0.00,,---,0.00,VWS V13.01,2013-06-25 16:07:00,
2013-06-25 12:08:00,87.8,77.2,30.00,ENE,68,4.6,4.6,71,0.00,,---,0.00,VWS V13.01,2013-06-25 16:08:00,
2013-06-25 12:09:00,87.8,77.2,30.01,ESE,112,8.0,8.0,71,0.00,,---,0.00,VWS V13.01,2013-06-25 16:09:00,
2013-06-25 12:10:00,87.8,77.2,30.01,ENE,68,8.0,8.0,71,0.00,,---,0.00,VWS V13.01,2013-06-25 16:10:00,
2013-06-25 12:12:00,87.8,77.2,30.01,ENE,68,9.1,9.1,71,0.00,,---,0.00,VWS V13.01,2013-06-25 16:12:00,
2013-06-25 12:13:00,87.9,77.3,30.01,ESE,112,6.7,6.7,71,0.00,,---,0.00,VWS V13.01,2013-06-25 16:13:00,
2013-06-25 12:14:00,87.9,77.3,30.01,ENE,68,8.5,8.5,71,0.00,,---,0.00,VWS V13.01,2013-06-25 16:14:00,
2013-06-25 12:15:00,87.9,77.3,30.01,ENE,68,7.8,7.8,71,0.00,,---,0.00,VWS V13.01,2013-06-25 16:15:00,
2013-06-25 12:17:00,87.9,77.3,30.01,East,90,8.2,8.2,71,0.00,,---,0.00,VWS V13.01,2013-06-25 16:17:00,
2013-06-25 12:18:00,87.9,77.3,30.01,ENE,68,7.6,7.6,71,0.00,,---,0.00,VWS V13.01,2013-06-25 16:18:00,
2013-06-25 12:19:00,87.9,77.3,30.01,NE,45,6.7,6.7,71,0.00,,---,0.00,VWS V13.01,2013-06-25 16:19:00,
2013-06-25 12:20:00,88.1,77.5,30.01,East,90,8.9,8.9,71,0.00,,---,0.00,VWS V13.01,2013-06-25 16:20:00,
2013-06-25 12:22:00,88.1,77.5,30.01,NNE,22,8.2,8.2,71,0.00,,---,0.00,VWS V13.01,2013-06-25 16:22:00,
2013-06-25 12:23:00,88.1,77.5,30.01,ENE,68,7.8,7.8,71,0.00,,---,0.00,VWS V13.01,2013-06-25 16:23:00,
2013-06-25 12:25:00,88.1,77.5,30.01,ENE,68,11.1,11.1,71,0.00,,---,0.00,VWS V13.01,2013-06-25 16:25:00,
2013-06-25 12:26:00,88.1,77.5,30.01,East,90,10.5,10.5,71,0.00,,---,0.00,VWS V13.01,2013-06-25 16:26:00,
2013-06-25 12:27:00,88.1,77.5,30.01,East,90,8.9,8.9,71,0.00,,---,0.00,VWS V13.01,2013-06-25 16:27:00,
2013-06-25 12:28:00,88.1,77.5,30.01,East,90,6.0,6.0,71,0.00,,---,0.00,VWS V13.01,2013-06-25 16:28:00,
2013-06-25 12:30:00,88.1,77.5,30.01,East,90,8.5,8.5,71,0.00,,---,0.00,VWS V13.01,2013-06-25 16:30:00,
2013-06-25 12:31:00,88.1,77.5,30.01,NE,45,9.1,9.1,71,0.00,,---,0.00,VWS V13.01,2013-06-25 16:31:00,
2013-06-25 12:32:00,88.1,77.5,30.01,NNE,22,8.0,8.0,71,0.00,,---,0.00,VWS V13.01,2013-06-25 16:32:00,
2013-06-25 12:33:00,88.3,77.7,30.01,ENE,68,9.1,9.1,71,0.00,,---,0.00,VWS V13.01,2013-06-25 16:33:00,
2013-06-25 12:35:00,88.3,77.7,30.01,NE,45,8.2,8.2,71,0.00,,---,0.00,VWS V13.01,2013-06-25 16:35:00,
2013-06-25 12:36:00,88.3,78.1,30.01,ENE,68,8.9,8.9,72,0.00,,---,0.00,VWS V13.01,2013-06-25 16:36:00,
2013-06-25 12:37:00,88.3,77.7,30.01,ENE,68,7.1,7.1,71,0.00,,---,0.00,VWS V13.01,2013-06-25 16:37:00,
2013-06-25 12:38:00,88.3,77.7,30.01,ENE,68,5.1,5.1,71,0.00,,---,0.00,VWS V13.01,2013-06-25 16:38:00,
2013-06-25 12:40:00,88.5,77.9,30.01,SE,135,8.5,8.5,71,0.00,,---,0.00,VWS V13.01,2013-06-25 16:40:00,
2013-06-25 12:41:00,88.5,77.9,30.01,ENE,68,8.7,8.7,71,0.00,,---,0.00,VWS V13.01,2013-06-25 16:41:00,
2013-06-25 12:42:00,88.5,77.9,30.01,ENE,68,8.7,8.7,71,0.00,,---,0.00,VWS V13.01,2013-06-25 16:42:00,
2013-06-25 12:43:00,88.5,77.9,30.01,East,90,4.6,4.6,71,0.00,,---,0.00,VWS V13.01,2013-06-25 16:43:00,
2013-06-25 12:45:00,88.7,78.1,30.01,ENE,68,7.8,7.8,71,0.00,,---,0.00,VWS V13.01,2013-06-25 16:45:00,
2013-06-25 12:47:00,88.7,78.1,30.01,ENE,68,6.4,6.4,71,0.00,,---,0.00,VWS V13.01,2013-06-25 16:47:00,
2013-06-25 12:48:00,88.8,78.2,30.01,ENE,68,4.0,4.0,71,0.00,,---,0.00,VWS V13.01,2013-06-25 16:48:00,
2013-06-25 12:50:00,88.8,77.8,30.01,ENE,68,7.6,7.6,70,0.00,,---,0.00,VWS V13.01,2013-06-25 16:50:00,
2013-06-25 12:52:00,88.8,77.8,30.01,ENE,68,5.1,5.1,70,0.00,,---,0.00,VWS V13.01,2013-06-25 16:52:00,
2013-06-25 12:54:00,89.0,77.9,30.01,ENE,68,7.3,7.3,70,0.00,,---,0.00,VWS V13.01,2013-06-25 16:54:00,
2013-06-25 12:55:00,89.2,78.1,30.00,NE,45,10.5,10.5,70,0.00,,---,0.00,VWS V13.01,2013-06-25 16:55:00,
2013-06-25 12:57:00,89.4,78.3,30.01,ENE,68,3.1,3.1,70,0.00,,---,0.00,VWS V13.01,2013-06-25 16:57:00,
2013-06-25 12:59:00,89.4,78.3,30.01,ENE,68,9.1,9.1,70,0.00,,---,0.00,VWS V13.01,2013-06-25 16:59:00,
2013-06-25 13:00:00,89.4,77.9,30.00,East,90,7.3,7.3,69,0.00,,---,0.00,VWS V13.01,2013-06-25 17:00:00,
2013-06-25 13:02:00,89.6,78.1,30.00,ENE,68,7.6,7.6,69,0.00,,---,0.00,VWS V13.01,2013-06-25 17:02:00,
2013-06-25 13:03:00,89.7,78.2,30.00,ESE,112,8.7,8.7,69,0.00,,---,0.00,VWS V13.01,2013-06-25 17:03:00,
2013-06-25 13:04:00,89.7,78.2,30.00,NE,45,11.8,11.8,69,0.00,,---,0.00,VWS V13.01,2013-06-25 17:04:00,
2013-06-25 13:05:00,89.9,78.4,30.00,ENE,68,10.5,10.5,69,0.00,,---,0.00,VWS V13.01,2013-06-25 17:05:00,
2013-06-25 13:07:00,89.9,77.9,30.00,NE,45,10.5,10.5,68,0.00,,---,0.00,VWS V13.01,2013-06-25 17:07:00,
2013-06-25 13:08:00,90.1,78.1,30.01,ENE,68,13.1,13.1,68,0.00,,---,0.00,VWS V13.01,2013-06-25 17:08:00,
2013-06-25 13:09:00,90.1,78.1,30.01,ENE,68,8.9,8.9,68,0.00,,---,0.00,VWS V13.01,2013-06-25 17:09:00,
2013-06-25 13:11:00,90.1,78.1,30.00,East,90,9.8,9.8,68,0.00,,---,0.00,VWS V13.01,2013-06-25 17:11:00,
2013-06-25 13:12:00,90.1,78.1,30.00,ESE,112,6.9,6.9,68,0.00,,---,0.00,VWS V13.01,2013-06-25 17:12:00,
2013-06-25 13:13:00,90.1,78.1,30.00,ENE,68,2.0,2.0,68,0.00,,---,0.00,VWS V13.01,2013-06-25 17:13:00,
2013-06-25 13:14:00,90.1,78.1,30.00,NE,45,6.0,6.0,68,0.00,,---,0.00,VWS V13.01,2013-06-25 17:14:00,
2013-06-25 13:16:00,90.1,78.1,30.00,East,90,8.2,8.2,68,0.00,,---,0.00,VWS V13.01,2013-06-25 17:16:00,
2013-06-25 13:17:00,90.1,78.1,30.00,East,90,8.9,8.9,68,0.00,,---,0.00,VWS V13.01,2013-06-25 17:17:00,
2013-06-25 13:18:00,89.9,77.9,30.00,East,90,11.8,11.8,68,0.00,,---,0.00,VWS V13.01,2013-06-25 17:18:00,
2013-06-25 13:19:00,89.9,77.9,30.00,East,90,6.0,6.0,68,0.00,,---,0.00,VWS V13.01,2013-06-25 17:19:00,
2013-06-25 13:21:00,90.1,78.1,30.00,NNE,22,6.2,6.2,68,0.00,,---,0.00,VWS V13.01,2013-06-25 17:21:00,
2013-06-25 13:22:00,90.1,78.1,30.00,NE,45,5.3,5.3,68,0.00,,---,0.00,VWS V13.01,2013-06-25 17:22:00,
2013-06-25 13:23:00,90.3,78.3,30.00,ESE,112,8.2,8.2,68,0.00,,---,0.00,VWS V13.01,2013-06-25 17:23:00,
2013-06-25 13:24:00,90.3,78.3,30.00,ENE,68,11.6,11.6,68,0.00,,---,0.00,VWS V13.01,2013-06-25 17:24:00,
2013-06-25 13:26:00,90.5,78.5,30.00,East,90,7.3,7.3,68,0.00,,---,0.00,VWS V13.01,2013-06-25 17:26:00,
2013-06-25 13:27:00,90.5,78.1,29.99,ENE,68,8.5,8.5,67,0.00,,---,0.00,VWS V13.01,2013-06-25 17:27:00,
2013-06-25 13:28:00,90.5,78.1,29.99,ENE,68,8.5,8.5,67,0.00,,---,0.00,VWS V13.01,2013-06-25 17:28:00,
2013-06-25 13:29:00,90.3,77.9,29.99,East,90,4.4,4.4,67,0.00,,---,0.00,VWS V13.01,2013-06-25 17:29:00,
2013-06-25 13:31:00,90.3,77.9,30.00,East,90,12.3,12.3,67,0.00,,---,0.00,VWS V13.01,2013-06-25 17:31:00,
2013-06-25 13:32:00,90.3,77.9,30.00,ENE,68,7.6,7.6,67,0.00,,---,0.00,VWS V13.01,2013-06-25 17:32:00,
2013-06-25 13:33:00,90.3,77.9,30.00,ENE,68,7.6,7.6,67,0.00,,---,0.00,VWS V13.01,2013-06-25 17:33:00,
2013-06-25 13:34:00,90.3,77.9,30.00,ENE,68,7.1,7.1,67,0.00,,---,0.00,VWS V13.01,2013-06-25 17:34:00,
2013-06-25 13:36:00,90.3,78.3,29.99,ENE,68,5.3,5.3,68,0.00,,---,0.00,VWS V13.01,2013-06-25 17:36:00,
2013-06-25 13:38:00,90.3,77.9,30.00,East,90,5.3,5.3,67,0.00,,---,0.00,VWS V13.01,2013-06-25 17:38:00,
2013-06-25 13:39:00,90.3,77.9,30.00,ENE,68,8.5,8.5,67,0.00,,---,0.00,VWS V13.01,2013-06-25 17:39:00,
2013-06-25 13:41:00,90.3,77.9,30.00,East,90,8.9,8.9,67,0.00,,---,0.00,VWS V13.01,2013-06-25 17:41:00,
2013-06-25 13:43:00,90.1,78.1,29.99,East,90,7.8,7.8,68,0.00,,---,0.00,VWS V13.01,2013-06-25 17:43:00,
2013-06-25 13:44:00,90.1,78.1,29.99,East,90,12.7,12.7,68,0.00,,---,0.00,VWS V13.01,2013-06-25 17:44:00,
2013-06-25 13:46:00,90.1,78.1,30.00,ENE,68,7.1,7.1,68,0.00,,---,0.00,VWS V13.01,2013-06-25 17:46:00,
2013-06-25 13:48:00,90.1,78.1,29.99,ENE,68,9.6,9.6,68,0.00,,---,0.00,VWS V13.01,2013-06-25 17:48:00,
2013-06-25 13:49:00,90.3,78.3,29.99,NE,45,8.5,9.8,68,0.00,,---,0.00,VWS V13.01,2013-06-25 17:49:00,
2013-06-25 13:51:00,90.5,78.5,29.99,ESE,112,6.0,14.7,68,0.00,,---,0.00,VWS V13.01,2013-06-25 17:51:00,
2013-06-25 13:53:00,90.6,78.6,29.99,SW,225,5.5,5.5,68,0.00,,---,0.00,VWS V13.01,2013-06-25 17:53:00,
2013-06-25 13:54:00,90.6,78.6,29.99,East,90,8.9,8.9,68,0.00,,---,0.00,VWS V13.01,2013-06-25 17:54:00,
2013-06-25 13:56:00,90.6,78.1,29.99,East,90,12.0,12.0,67,0.00,,---,0.00,VWS V13.01,2013-06-25 17:56:00,
2013-06-25 13:58:00,90.6,78.1,29.99,East,90,10.5,10.5,67,0.00,,---,0.00,VWS V13.01,2013-06-25 17:58:00,
2013-06-25 13:59:00,90.5,78.1,29.99,ENE,68,6.7,6.7,67,0.00,,---,0.00,VWS V13.01,2013-06-25 17:59:00,
2013-06-25 14:01:00,90.5,78.1,29.99,NE,45,10.9,10.9,67,0.00,,---,0.00,VWS V13.01,2013-06-25 18:01:00,
2013-06-25 14:03:00,90.5,78.1,29.99,NE,45,4.0,4.0,67,0.00,,---,0.00,VWS V13.01,2013-06-25 18:03:00,
2013-06-25 14:04:00,90.6,78.1,29.98,East,90,4.6,6.7,67,0.00,,---,0.00,VWS V13.01,2013-06-25 18:04:00,
2013-06-25 14:06:00,91.0,79.0,29.98,ESE,112,6.0,6.0,68,0.00,,---,0.00,VWS V13.01,2013-06-25 18:06:00,
2013-06-25 14:08:00,91.0,78.5,29.98,ENE,68,5.3,5.3,67,0.00,,---,0.00,VWS V13.01,2013-06-25 18:08:00,
2013-06-25 14:09:00,91.2,78.7,29.99,ENE,68,8.2,8.2,67,0.00,,---,0.00,VWS V13.01,2013-06-25 18:09:00,
2013-06-25 14:11:00,91.5,79.0,29.98,East,90,10.2,10.2,67,0.00,,---,0.00,VWS V13.01,2013-06-25 18:11:00,
2013-06-25 14:13:00,91.5,79.0,29.98,East,90,8.7,8.7,67,0.00,,---,0.00,VWS V13.01,2013-06-25 18:13:00,
2013-06-25 14:14:00,91.7,79.2,29.98,ENE,68,6.4,6.4,67,0.00,,---,0.00,VWS V13.01,2013-06-25 18:14:00,
2013-06-25 14:16:00,91.7,78.7,29.98,ENE,68,11.8,11.8,66,0.00,,---,0.00,VWS V13.01,2013-06-25 18:16:00,
2013-06-25 14:18:00,91.7,78.7,29.98,NE,45,10.7,10.7,66,0.00,,---,0.00,VWS V13.01,2013-06-25 18:18:00,
2013-06-25 14:20:00,91.9,78.9,29.98,East,90,10.2,10.2,66,0.00,,---,0.00,VWS V13.01,2013-06-25 18:20:00,
2013-06-25 14:22:00,91.9,78.9,29.98,ESE,112,7.1,7.1,66,0.00,,---,0.00,VWS V13.01,2013-06-25 18:22:00,
2013-06-25 14:23:00,91.9,78.9,29.98,ENE,68,2.6,2.6,66,0.00,,---,0.00,VWS V13.01,2013-06-25 18:23:00,
2013-06-25 14:24:00,92.1,79.1,29.98,ENE,68,12.3,12.3,66,0.00,,---,0.00,VWS V13.01,2013-06-25 18:24:00,
2013-06-25 14:25:00,92.1,79.1,29.97,East,90,16.7,16.7,66,0.00,,---,0.00,VWS V13.01,2013-06-25 18:25:00,
2013-06-25 14:27:00,92.1,78.7,29.98,NE,45,8.5,8.5,65,0.00,,---,0.00,VWS V13.01,2013-06-25 18:27:00,
2013-06-25 14:28:00,92.1,78.7,29.98,ENE,68,9.3,9.3,65,0.00,,---,0.00,VWS V13.01,2013-06-25 18:28:00,
2013-06-25 14:29:00,92.1,78.7,29.98,East,90,9.3,9.3,65,0.00,,---,0.00,VWS V13.01,2013-06-25 18:29:00,
2013-06-25 14:30:00,92.1,78.7,29.97,East,90,9.1,9.1,65,0.00,,---,0.00,VWS V13.01,2013-06-25 18:30:00,
2013-06-25 14:32:00,92.1,78.7,29.97,East,90,5.8,5.8,65,0.00,,---,0.00,VWS V13.01,2013-06-25 18:32:00,
2013-06-25 14:33:00,91.9,78.5,29.98,East,90,3.5,3.5,65,0.00,,---,0.00,VWS V13.01,2013-06-25 18:33:00,
2013-06-25 14:34:00,91.9,78.5,29.98,ENE,68,6.9,6.9,65,0.00,,---,0.00,VWS V13.01,2013-06-25 18:34:00,
2013-06-25 14:35:00,91.7,78.3,29.98,East,90,8.5,8.5,65,0.00,,---,0.00,VWS V13.01,2013-06-25 18:35:00,
2013-06-25 14:37:00,91.5,78.5,29.97,East,90,11.4,11.4,66,0.00,,---,0.00,VWS V13.01,2013-06-25 18:37:00,
2013-06-25 14:38:00,91.2,78.3,29.97,North,0,5.1,9.6,66,0.00,,---,0.00,VWS V13.01,2013-06-25 18:38:00,
2013-06-25 14:39:00,91.2,78.3,29.97,North,0,5.1,5.1,66,0.00,,---,0.00,VWS V13.01,2013-06-25 18:39:00,
2013-06-25 14:40:00,91.2,78.3,29.97,ENE,68,6.0,6.0,66,0.00,,---,0.00,VWS V13.01,2013-06-25 18:40:00,
2013-06-25 14:42:00,90.6,78.1,29.97,ENE,68,8.5,8.5,67,0.00,,---,0.00,VWS V13.01,2013-06-25 18:42:00,
2013-06-25 14:43:00,90.6,78.1,29.97,ENE,68,6.9,6.9,67,0.00,,---,0.00,VWS V13.01,2013-06-25 18:43:00,
2013-06-25 14:44:00,90.5,78.1,29.97,ENE,68,10.5,10.5,67,0.00,,---,0.00,VWS V13.01,2013-06-25 18:44:00,
2013-06-25 14:45:00,90.3,77.9,29.97,ENE,68,15.8,15.8,67,0.00,,---,0.00,VWS V13.01,2013-06-25 18:45:00,
2013-06-25 14:47:00,90.1,77.7,29.97,ENE,68,5.1,5.1,67,0.00,,---,0.00,VWS V13.01,2013-06-25 18:47:00,
2013-06-25 14:48:00,89.7,77.3,29.97,ENE,68,8.5,10.7,67,0.00,,---,0.00,VWS V13.01,2013-06-25 18:48:00,
2013-06-25 14:49:00,89.7,77.3,29.97,ENE,68,8.5,8.5,67,0.00,,---,0.00,VWS V13.01,2013-06-25 18:49:00,
2013-06-25 14:50:00,89.7,77.3,29.98,ESE,112,11.8,11.8,67,0.00,,---,0.00,VWS V13.01,2013-06-25 18:50:00,
2013-06-25 14:52:00,89.6,77.6,29.98,ESE,112,7.3,7.3,68,0.00,,---,0.00,VWS V13.01,2013-06-25 18:52:00,
2013-06-25 14:54:00,89.4,77.4,29.98,ENE,68,8.5,8.5,68,0.00,,---,0.00,VWS V13.01,2013-06-25 18:54:00,
2013-06-25 14:55:00,89.2,77.3,29.98,ENE,68,7.8,7.8,68,0.00,,---,0.00,VWS V13.01,2013-06-25 18:55:00,
2013-06-25 14:57:00,89.2,77.3,29.98,East,90,6.9,6.9,68,0.00,,---,0.00,VWS V13.01,2013-06-25 18:57:00,
2013-06-25 14:58:00,88.8,77.3,29.98,East,90,15.6,15.6,69,0.00,,---,0.00,VWS V13.01,2013-06-25 18:58:00,
2013-06-25 14:59:00,88.8,77.3,29.98,East,90,15.6,15.6,69,0.00,,---,0.00,VWS V13.01,2013-06-25 18:59:00,
2013-06-25 15:00:00,88.7,77.2,29.98,NE,45,10.5,10.5,69,0.00,,---,0.00,VWS V13.01,2013-06-25 19:00:00,
2013-06-25 15:02:00,88.5,77.5,29.98,East,90,6.2,6.2,70,0.00,,---,0.00,VWS V13.01,2013-06-25 19:02:00,
2013-06-25 15:04:00,88.3,77.3,29.98,ENE,68,5.3,5.3,70,0.00,,---,0.00,VWS V13.01,2013-06-25 19:04:00,
2013-06-25 15:05:00,88.3,77.3,29.98,ENE,68,5.1,5.1,70,0.00,,---,0.00,VWS V13.01,2013-06-25 19:05:00,
2013-06-25 15:07:00,88.3,77.3,29.98,North,0,0.0,0.0,70,0.00,,---,0.00,VWS V13.01,2013-06-25 19:07:00,
2013-06-25 15:09:00,88.1,77.5,29.98,NE,45,10.5,10.5,71,0.00,,---,0.00,VWS V13.01,2013-06-25 19:09:00,
2013-06-25 15:10:00,88.1,77.5,29.97,NE,45,8.5,8.5,71,0.00,,---,0.00,VWS V13.01,2013-06-25 19:10:00,
2013-06-25 15:12:00,88.1,77.5,29.97,ENE,68,6.2,6.2,71,0.00,,---,0.00,VWS V13.01,2013-06-25 19:12:00,
2013-06-25 15:14:00,87.9,77.3,29.98,ESE,112,5.5,5.5,71,0.00,,---,0.00,VWS V13.01,2013-06-25 19:14:00,
2013-06-25 15:15:00,87.9,77.3,29.97,ESE,112,5.5,5.5,71,0.00,,---,0.00,VWS V13.01,2013-06-25 19:15:00,
2013-06-25 15:17:00,87.9,77.3,29.97,East,90,9.3,9.3,71,0.00,,---,0.00,VWS V13.01,2013-06-25 19:17:00,
2013-06-25 15:19:00,87.8,77.2,29.97,East,90,9.8,9.8,71,0.00,,---,0.00,VWS V13.01,2013-06-25 19:19:00,
2013-06-25 15:20:00,87.6,77.0,29.96,ENE,68,6.7,9.3,71,0.00,,---,0.00,VWS V13.01,2013-06-25 19:20:00,
2013-06-25 15:22:00,87.6,77.0,29.97,ESE,112,5.1,5.1,71,0.00,,---,0.00,VWS V13.01,2013-06-25 19:22:00,
2013-06-25 15:24:00,87.4,76.8,29.97,ENE,68,7.1,7.1,71,0.00,,---,0.00,VWS V13.01,2013-06-25 19:24:00,
2013-06-25 15:25:00,87.4,76.4,29.97,ENE,68,16.3,16.3,70,0.00,,---,0.00,VWS V13.01,2013-06-25 19:25:00,
2013-06-25 15:28:00,87.0,76.0,29.98,ESE,112,9.6,9.6,70,0.00,,---,0.00,VWS V13.01,2013-06-25 19:28:00,
2013-06-25 15:29:00,87.0,76.0,29.98,East,90,12.3,12.3,70,0.00,,---,0.00,VWS V13.01,2013-06-25 19:29:00,
2013-06-25 15:30:00,87.0,76.0,29.98,ENE,68,5.1,5.1,70,0.00,,---,0.00,VWS V13.01,2013-06-25 19:30:00,
2013-06-25 15:33:00,87.0,76.0,29.98,East,90,11.6,11.6,70,0.00,,---,0.00,VWS V13.01,2013-06-25 19:33:00,
2013-06-25 15:35:00,86.9,75.9,29.98,NE,45,8.2,8.2,70,0.00,,---,0.00,VWS V13.01,2013-06-25 19:35:00,
2013-06-25 15:38:00,86.9,75.9,29.98,East,90,6.0,6.0,70,0.00,,---,0.00,VWS V13.01,2013-06-25 19:38:00,
2013-06-25 15:39:00,87.0,76.0,29.97,North,0,0.0,0.0,70,0.00,,---,0.00,VWS V13.01,2013-06-25 19:39:00,
2013-06-25 15:40:00,87.0,76.0,29.97,North,0,0.0,0.0,70,0.00,,---,0.00,VWS V13.01,2013-06-25 19:40:00,
2013-06-25 15:41:00,87.0,76.0,29.97,ENE,68,7.6,7.6,70,0.00,,---,0.00,VWS V13.01,2013-06-25 19:41:00,
2013-06-25 15:43:00,87.2,76.2,29.98,ESE,112,7.3,7.3,70,0.00,,---,0.00,VWS V13.01,2013-06-25 19:43:00,
2013-06-25 15:45:00,87.4,76.4,29.98,ENE,68,8.9,8.9,70,0.00,,---,0.00,VWS V13.01,2013-06-25 19:45:00,
2013-06-25 15:46:00,87.4,76.4,29.98,ENE,68,2.4,2.4,70,0.00,,---,0.00,VWS V13.01,2013-06-25 19:46:00,
2013-06-25 15:48:00,87.6,76.6,29.98,East,90,6.4,6.4,70,0.00,,---,0.00,VWS V13.01,2013-06-25 19:48:00,
2013-06-25 15:50:00,87.8,76.4,29.97,East,90,6.7,6.7,69,0.00,,---,0.00,VWS V13.01,2013-06-25 19:50:00,
2013-06-25 15:51:00,87.9,76.5,29.97,ESE,112,5.3,5.3,69,0.00,,---,0.00,VWS V13.01,2013-06-25 19:51:00,
2013-06-25 15:53:00,87.9,76.5,29.97,ESE,112,8.5,8.5,69,0.00,,---,0.00,VWS V13.01,2013-06-25 19:53:00,
2013-06-25 15:55:00,88.1,76.7,29.97,ENE,68,6.2,6.2,69,0.00,,---,0.00,VWS V13.01,2013-06-25 19:55:00,
2013-06-25 15:56:00,88.3,76.8,29.97,NE,45,4.2,4.2,69,0.00,,---,0.00,VWS V13.01,2013-06-25 19:56:00,
2013-06-25 15:58:00,88.3,76.8,29.97,ENE,68,2.0,2.0,69,0.00,,---,0.00,VWS V13.01,2013-06-25 19:58:00,
2013-06-25 16:00:00,88.5,77.5,29.97,ENE,68,3.8,3.8,70,0.00,,---,0.00,VWS V13.01,2013-06-25 20:00:00,
2013-06-25 16:01:00,88.5,77.5,29.97,ENE,68,7.3,7.3,70,0.00,,---,0.00,VWS V13.01,2013-06-25 20:01:00,
2013-06-25 16:03:00,88.7,77.7,29.98,North,0,0.0,0.0,70,0.00,,---,0.00,VWS V13.01,2013-06-25 20:03:00,
2013-06-25 16:05:00,88.7,77.7,29.97,ESE,112,4.0,4.0,70,0.00,,---,0.00,VWS V13.01,2013-06-25 20:05:00,
2013-06-25 16:06:00,88.7,77.7,29.97,ESE,112,3.5,3.5,70,0.00,,---,0.00,VWS V13.01,2013-06-25 20:06:00,
2013-06-25 16:08:00,88.8,77.8,29.97,ENE,68,5.1,5.1,70,0.00,,---,0.00,VWS V13.01,2013-06-25 20:08:00,
2013-06-25 16:10:00,88.7,77.7,29.97,East,90,1.1,1.1,70,0.00,,---,0.00,VWS V13.01,2013-06-25 20:10:00,
2013-06-25 16:11:00,88.7,77.7,29.96,ENE,68,5.1,5.1,70,0.00,,---,0.00,VWS V13.01,2013-06-25 20:11:00,
2013-06-25 16:13:00,88.7,77.7,29.97,ESE,112,11.1,11.1,70,0.00,,---,0.00,VWS V13.01,2013-06-25 20:13:00,
2013-06-25 16:15:00,88.5,77.5,29.96,East,90,6.0,6.0,70,0.00,,---,0.00,VWS V13.01,2013-06-25 20:15:00,
2013-06-25 16:17:00,88.5,77.9,29.96,ESE,112,4.9,4.9,71,0.00,,---,0.00,VWS V13.01,2013-06-25 20:17:00,
2013-06-25 16:18:00,88.5,77.9,29.96,SE,135,4.2,4.2,71,0.00,,---,0.00,VWS V13.01,2013-06-25 20:18:00,
2013-06-25 16:20:00,88.5,77.5,29.96,ESE,112,3.8,3.8,70,0.00,,---,0.00,VWS V13.01,2013-06-25 20:20:00,
2013-06-25 16:21:00,88.3,76.8,29.96,East,90,6.7,6.7,69,0.00,,---,0.00,VWS V13.01,2013-06-25 20:21:00,
2013-06-25 16:22:00,88.3,76.8,29.96,SE,135,2.0,2.0,69,0.00,,---,0.00,VWS V13.01,2013-06-25 20:22:00,
2013-06-25 16:23:00,88.1,76.7,29.96,ENE,68,9.3,9.3,69,0.00,,---,0.00,VWS V13.01,2013-06-25 20:23:00,
2013-06-25 16:25:00,87.9,76.9,29.96,East,90,8.7,8.7,70,0.00,,---,0.00,VWS V13.01,2013-06-25 20:25:00,
2013-06-25 16:26:00,88.1,77.1,29.96,ENE,68,3.8,3.8,70,0.00,,---,0.00,VWS V13.01,2013-06-25 20:26:00,
2013-06-25 16:27:00,87.9,76.9,29.96,North,0,0.0,0.0,70,0.00,,---,0.00,VWS V13.01,2013-06-25 20:27:00,
2013-06-25 16:28:00,87.9,76.9,29.96,ESE,112,4.0,4.0,70,0.00,,---,0.00,VWS V13.01,2013-06-25 20:28:00,
2013-06-25 16:30:00,87.9,76.9,29.96,ESE,112,8.5,8.5,70,0.00,,---,0.00,VWS V13.01,2013-06-25 20:30:00,
2013-06-25 16:31:00,87.9,76.9,29.96,ESE,112,8.5,8.5,70,0.00,,---,0.00,VWS V13.01,2013-06-25 20:31:00,
2013-06-25 16:33:00,87.8,76.8,29.96,ESE,112,8.7,8.7,70,0.00,,---,0.00,VWS V13.01,2013-06-25 20:33:00,
2013-06-25 16:34:00,87.8,76.4,29.96,ENE,68,6.2,6.2,69,0.00,,---,0.00,VWS V13.01,2013-06-25 20:34:00,
2013-06-25 16:35:00,87.6,76.2,29.96,SE,135,4.4,4.4,69,0.00,,---,0.00,VWS V13.01,2013-06-25 20:35:00,
2013-06-25 16:36:00,87.6,76.2,29.96,SE,135,4.4,4.4,69,0.00,,---,0.00,VWS V13.01,2013-06-25 20:36:00,
2013-06-25 16:38:00,87.6,76.2,29.96,ENE,68,6.2,6.2,69,0.00,,---,0.00,VWS V13.01,2013-06-25 20:38:00,
2013-06-25 16:39:00,87.6,76.2,29.96,ENE,68,6.0,6.0,69,0.00,,---,0.00,VWS V13.01,2013-06-25 20:39:00,
2013-06-25 16:41:00,87.6,75.7,29.96,ENE,68,6.2,6.2,68,0.00,,---,0.00,VWS V13.01,2013-06-25 20:41:00,
2013-06-25 16:43:00,87.6,75.7,29.96,East,90,1.1,1.1,68,0.00,,---,0.00,VWS V13.01,2013-06-25 20:43:00,
2013-06-25 16:44:00,87.6,75.7,29.96,ESE,112,7.6,7.6,68,0.00,,---,0.00,VWS V13.01,2013-06-25 20:44:00,
2013-06-25 16:46:00,87.6,75.7,29.96,East,90,6.7,6.7,68,0.00,,---,0.00,VWS V13.01,2013-06-25 20:46:00,
2013-06-25 16:47:00,87.4,75.6,29.96,ENE,68,4.6,4.6,68,0.00,,---,0.00,VWS V13.01,2013-06-25 20:47:00,
2013-06-25 16:48:00,87.4,75.6,29.96,ENE,68,8.0,8.0,68,0.00,,---,0.00,VWS V13.01,2013-06-25 20:48:00,
2013-06-25 16:49:00,87.4,76.0,29.96,SSW,202,2.6,2.6,69,0.00,,---,0.00,VWS V13.01,2013-06-25 20:49:00,
2013-06-25 16:51:00,87.6,76.2,29.96,NE,45,5.1,5.1,69,0.00,,---,0.00,VWS V13.01,2013-06-25 20:51:00,
2013-06-25 16:52:00,87.6,76.2,29.96,NE,45,2.2,2.2,69,0.00,,---,0.00,VWS V13.01,2013-06-25 20:52:00,
2013-06-25 16:53:00,87.6,76.2,29.96,ESE,112,6.9,6.9,69,0.00,,---,0.00,VWS V13.01,2013-06-25 20:53:00,
2013-06-25 16:54:00,87.6,76.2,29.96,ENE,68,5.8,5.8,69,0.00,,---,0.00,VWS V13.01,2013-06-25 20:54:00,
2013-06-25 16:56:00,87.8,76.4,29.96,ESE,112,6.2,6.2,69,0.00,,---,0.00,VWS V13.01,2013-06-25 20:56:00,
2013-06-25 16:57:00,87.8,76.4,29.96,ENE,68,10.2,10.2,69,0.00,,---,0.00,VWS V13.01,2013-06-25 20:57:00,
2013-06-25 16:58:00,87.6,76.2,29.96,ESE,112,5.1,5.1,69,0.00,,---,0.00,VWS V13.01,2013-06-25 20:58:00,
2013-06-25 16:59:00,87.6,76.2,29.96,NE,45,6.0,6.0,69,0.00,,---,0.00,VWS V13.01,2013-06-25 20:59:00,
2013-06-25 17:01:00,87.6,76.2,29.96,ESE,112,7.6,7.6,69,0.00,,---,0.00,VWS V13.01,2013-06-25 21:01:00,
2013-06-25 17:02:00,87.6,76.2,29.96,East,90,6.4,6.4,69,0.00,,---,0.00,VWS V13.01,2013-06-25 21:02:00,
2013-06-25 17:03:00,87.4,76.4,29.96,East,90,9.1,9.1,70,0.00,,---,0.00,VWS V13.01,2013-06-25 21:03:00,
2013-06-25 17:04:00,87.4,76.4,29.96,East,90,9.1,9.1,70,0.00,,---,0.00,VWS V13.01,2013-06-25 21:04:00,
2013-06-25 17:06:00,87.4,76.4,29.96,East,90,6.9,6.9,70,0.00,,---,0.00,VWS V13.01,2013-06-25 21:06:00,
2013-06-25 17:07:00,87.2,76.2,29.96,ENE,68,6.2,6.2,70,0.00,,---,0.00,VWS V13.01,2013-06-25 21:07:00,
2013-06-25 17:08:00,87.2,76.2,29.96,East,90,4.4,7.1,70,0.00,,---,0.00,VWS V13.01,2013-06-25 21:08:00,
2013-06-25 17:09:00,87.2,76.2,29.96,East,90,4.4,4.4,70,0.00,,---,0.00,VWS V13.01,2013-06-25 21:09:00,
2013-06-25 17:11:00,87.0,76.0,29.96,ENE,68,9.1,9.1,70,0.00,,---,0.00,VWS V13.01,2013-06-25 21:11:00,
2013-06-25 17:12:00,87.0,76.0,29.96,East,90,6.2,6.2,70,0.00,,---,0.00,VWS V13.01,2013-06-25 21:12:00,
2013-06-25 17:14:00,87.0,76.0,29.96,ENE,68,8.2,8.2,70,0.00,,---,0.00,VWS V13.01,2013-06-25 21:14:00,
2013-06-25 17:16:00,87.0,76.0,29.95,East,90,8.9,8.9,70,0.00,,---,0.00,VWS V13.01,2013-06-25 21:16:00,
2013-06-25 17:17:00,86.9,75.9,29.96,East,90,4.6,4.6,70,0.00,,---,0.00,VWS V13.01,2013-06-25 21:17:00,
2013-06-25 17:19:00,86.9,75.9,29.96,East,90,5.3,5.3,70,0.00,,---,0.00,VWS V13.01,2013-06-25 21:19:00,
2013-06-25 17:21:00,87.0,76.0,29.96,ENE,68,4.6,4.6,70,0.00,,---,0.00,VWS V13.01,2013-06-25 21:21:00,
2013-06-25 17:22:00,87.0,76.0,29.96,East,90,6.4,6.4,70,0.00,,---,0.00,VWS V13.01,2013-06-25 21:22:00,
2013-06-25 17:24:00,87.0,76.0,29.96,ENE,68,5.3,5.3,70,0.00,,---,0.00,VWS V13.01,2013-06-25 21:24:00,
2013-06-25 17:26:00,86.9,76.4,29.96,East,90,7.1,7.1,71,0.00,,---,0.00,VWS V13.01,2013-06-25 21:26:00,
2013-06-25 17:27:00,87.0,76.5,29.96,East,90,12.3,12.3,71,0.00,,---,0.00,VWS V13.01,2013-06-25 21:27:00,
2013-06-25 17:29:00,86.9,76.4,29.97,East,90,20.3,20.3,71,0.00,,---,0.00,VWS V13.01,2013-06-25 21:29:00,
2013-06-25 17:31:00,86.7,76.2,29.97,NE,45,14.3,14.3,71,0.00,,---,0.00,VWS V13.01,2013-06-25 21:31:00,
2013-06-25 17:32:00,86.5,76.0,29.97,NE,45,10.0,10.0,71,0.00,,---,0.00,VWS V13.01,2013-06-25 21:32:00,
2013-06-25 17:34:00,86.1,76.0,29.97,ENE,68,7.6,7.6,72,0.00,,---,0.00,VWS V13.01,2013-06-25 21:34:00,
2013-06-25 17:35:00,86.0,75.9,29.97,ENE,68,14.5,14.5,72,0.00,,---,0.00,VWS V13.01,2013-06-25 21:35:00,
2013-06-25 17:36:00,85.8,76.2,29.97,ESE,112,6.9,6.9,73,0.00,,---,0.00,VWS V13.01,2013-06-25 21:36:00,
2013-06-25 17:37:00,85.8,76.2,29.97,ENE,68,11.6,11.6,73,0.00,,---,0.00,VWS V13.01,2013-06-25 21:37:00,
2013-06-25 17:39:00,85.6,76.0,29.97,East,90,12.7,12.7,73,0.00,,---,0.00,VWS V13.01,2013-06-25 21:39:00,
2013-06-25 17:40:00,85.6,76.0,29.97,ESE,112,8.7,8.7,73,0.00,,---,0.00,VWS V13.01,2013-06-25 21:40:00,
2013-06-25 17:41:00,85.2,75.6,29.97,East,90,8.2,8.2,73,0.00,,---,0.00,VWS V13.01,2013-06-25 21:41:00,
2013-06-25 17:42:00,85.2,75.6,29.97,ESE,112,4.0,4.0,73,0.00,,---,0.00,VWS V13.01,2013-06-25 21:42:00,
2013-06-25 17:44:00,85.1,75.5,29.96,NE,45,1.3,1.3,73,0.00,,---,0.00,VWS V13.01,2013-06-25 21:44:00,
2013-06-25 17:45:00,85.1,75.5,29.96,ENE,68,6.9,6.9,73,0.00,,---,0.00,VWS V13.01,2013-06-25 21:45:00,
2013-06-25 17:46:00,85.2,75.2,29.97,SE,135,6.7,6.7,72,0.00,,---,0.00,VWS V13.01,2013-06-25 21:46:00,
2013-06-25 17:47:00,85.2,75.2,29.97,SE,135,6.7,6.7,72,0.00,,---,0.00,VWS V13.01,2013-06-25 21:47:00,
2013-06-25 17:49:00,85.2,75.2,29.97,ESE,112,3.3,3.3,72,0.00,,---,0.00,VWS V13.01,2013-06-25 21:49:00,
2013-06-25 17:50:00,85.1,75.1,29.97,ESE,112,1.1,1.1,72,0.00,,---,0.00,VWS V13.01,2013-06-25 21:50:00,
2013-06-25 17:51:00,85.1,74.6,29.97,ESE,112,4.6,7.8,71,0.00,,---,0.00,VWS V13.01,2013-06-25 21:51:00,
2013-06-25 17:52:00,85.1,74.6,29.97,ESE,112,4.6,4.6,71,0.00,,---,0.00,VWS V13.01,2013-06-25 21:52:00,
2013-06-25 17:53:00,85.1,74.6,29.97,East,90,2.0,2.0,71,0.00,,---,0.00,VWS V13.01,2013-06-25 21:53:00,
2013-06-25 17:54:00,85.1,74.6,29.97,ESE,112,1.5,1.5,71,0.00,,---,0.00,VWS V13.01,2013-06-25 21:54:00,
2013-06-25 17:55:00,85.1,74.6,29.97,East,90,2.2,2.2,71,0.00,,---,0.00,VWS V13.01,2013-06-25 21:55:00,
2013-06-25 17:56:00,85.1,74.6,29.97,SSE,158,5.1,5.1,71,0.00,,---,0.00,VWS V13.01,2013-06-25 21:56:00,
2013-06-25 17:57:00,85.1,74.6,29.97,SSE,158,5.1,5.1,71,0.00,,---,0.00,VWS V13.01,2013-06-25 21:57:00,
2013-06-25 17:58:00,85.1,74.6,29.97,SSE,158,8.5,8.5,71,0.00,,---,0.00,VWS V13.01,2013-06-25 21:58:00,
2013-06-25 17:59:00,85.1,74.6,29.97,ENE,68,3.8,3.8,71,0.00,,---,0.00,VWS V13.01,2013-06-25 21:59:00,
2013-06-25 18:00:00,85.1,74.6,29.97,East,90,7.1,7.1,71,0.00,,---,0.00,VWS V13.01,2013-06-25 22:00:00,
2013-06-25 18:01:00,84.9,74.4,29.98,ENE,68,0.0,0.0,71,0.00,,---,0.00,VWS V13.01,2013-06-25 22:01:00,
2013-06-25 18:02:00,84.9,74.4,29.98,ENE,68,0.0,0.0,71,0.00,,---,0.00,VWS V13.01,2013-06-25 22:02:00,
2013-06-25 18:03:00,84.9,74.4,29.97,East,90,5.8,5.8,71,0.00,,---,0.00,VWS V13.01,2013-06-25 22:03:00,
2013-06-25 18:04:00,84.9,74.4,29.97,ESE,112,4.4,4.4,71,0.00,,---,0.00,VWS V13.01,2013-06-25 22:04:00,
2013-06-25 18:05:00,84.9,74.4,29.97,ENE,68,1.7,1.7,71,0.00,,---,0.00,VWS V13.01,2013-06-25 22:05:00,
2013-06-25 18:07:00,84.7,74.3,29.97,SSE,158,0.0,0.0,71,0.00,,---,0.00,VWS V13.01,2013-06-25 22:07:00,
2013-06-25 18:08:00,84.7,74.7,29.97,South,180,6.7,6.7,72,0.00,,---,0.00,VWS V13.01,2013-06-25 22:08:00,
2013-06-25 18:09:00,84.7,74.7,29.97,SE,135,8.7,8.7,72,0.00,,---,0.00,VWS V13.01,2013-06-25 22:09:00,
2013-06-25 18:10:00,84.9,74.9,29.97,SSE,158,1.3,1.3,72,0.00,,---,0.00,VWS V13.01,2013-06-25 22:10:00,
2013-06-25 18:12:00,84.7,74.7,29.97,NE,45,3.5,3.5,72,0.00,,---,0.00,VWS V13.01,2013-06-25 22:12:00,
2013-06-25 18:13:00,84.7,74.7,29.98,ENE,68,2.0,2.0,72,0.00,,---,0.00,VWS V13.01,2013-06-25 22:13:00,
2013-06-25 18:14:00,84.7,74.7,29.97,ESE,112,3.5,4.0,72,0.00,,---,0.00,VWS V13.01,2013-06-25 22:14:00,
2013-06-25 18:15:00,84.7,74.7,29.97,ESE,112,3.5,3.5,72,0.00,,---,0.00,VWS V13.01,2013-06-25 22:15:00,
2013-06-25 18:17:00,84.7,74.7,29.98,SE,135,7.1,7.1,72,0.00,,---,0.00,VWS V13.01,2013-06-25 22:17:00,
2013-06-25 18:18:00,84.5,74.5,29.98,East,90,8.9,8.9,72,0.00,,---,0.00,VWS V13.01,2013-06-25 22:18:00,
2013-06-25 18:19:00,84.5,74.5,29.98,East,90,0.8,5.5,72,0.00,,---,0.00,VWS V13.01,2013-06-25 22:19:00,
2013-06-25 18:20:00,84.5,74.5,29.98,East,90,0.8,0.8,72,0.00,,---,0.00,VWS V13.01,2013-06-25 22:20:00,
2013-06-25 18:22:00,84.3,74.3,29.98,ESE,112,2.2,2.2,72,0.00,,---,0.00,VWS V13.01,2013-06-25 22:22:00,
2013-06-25 18:23:00,84.3,74.3,29.98,ENE,68,5.3,5.3,72,0.00,,---,0.00,VWS V13.01,2013-06-25 22:23:00,
2013-06-25 18:24:00,84.2,74.2,29.98,East,90,7.8,7.8,72,0.00,,---,0.00,VWS V13.01,2013-06-25 22:24:00,
2013-06-25 18:25:00,84.3,74.3,29.98,East,90,0.0,0.0,72,0.00,,---,0.00,VWS V13.01,2013-06-25 22:25:00,
2013-06-25 18:27:00,84.2,74.2,29.98,ENE,68,0.0,0.0,72,0.00,,---,0.00,VWS V13.01,2013-06-25 22:27:00,
2013-06-25 18:28:00,84.2,74.2,29.99,South,180,1.5,1.5,72,0.00,,---,0.00,VWS V13.01,2013-06-25 22:28:00,
2013-06-25 18:29:00,84.0,74.0,29.98,ENE,68,3.5,3.5,72,0.00,,---,0.00,VWS V13.01,2013-06-25 22:29:00,
2013-06-25 18:31:00,84.0,74.0,29.98,ENE,68,2.9,2.9,72,0.00,,---,0.00,VWS V13.01,2013-06-25 22:31:00,
2013-06-25 18:32:00,84.0,74.0,29.98,NE,45,0.0,0.0,72,0.00,,---,0.00,VWS V13.01,2013-06-25 22:32:00,
2013-06-25 18:33:00,84.0,74.4,29.98,ENE,68,5.5,5.5,73,0.00,,---,0.00,VWS V13.01,2013-06-25 22:33:00,
2013-06-25 18:34:00,84.0,74.4,29.99,East,90,4.4,8.2,73,0.00,,---,0.00,VWS V13.01,2013-06-25 22:34:00,
2013-06-25 18:36:00,84.0,74.4,29.98,ENE,68,5.1,5.1,73,0.00,,---,0.00,VWS V13.01,2013-06-25 22:36:00,
2013-06-25 18:37:00,84.0,74.4,29.99,ENE,68,10.5,10.5,73,0.00,,---,0.00,VWS V13.01,2013-06-25 22:37:00,
2013-06-25 18:38:00,84.0,74.8,29.99,East,90,6.4,6.4,74,0.00,,---,0.00,VWS V13.01,2013-06-25 22:38:00,
2013-06-25 18:39:00,83.8,74.6,29.98,ENE,68,4.4,7.8,74,0.00,,---,0.00,VWS V13.01,2013-06-25 22:39:00,
2013-06-25 18:41:00,83.8,74.6,29.98,East,90,10.5,10.5,74,0.00,,---,0.00,VWS V13.01,2013-06-25 22:41:00,
2013-06-25 18:42:00,83.8,74.6,29.98,ESE,112,4.6,4.6,74,0.00,,---,0.00,VWS V13.01,2013-06-25 22:42:00,
2013-06-25 18:43:00,83.6,74.4,29.98,East,90,4.9,4.9,74,0.00,,---,0.00,VWS V13.01,2013-06-25 22:43:00,
2013-06-25 18:44:00,83.4,74.7,29.98,North,0,2.0,2.0,75,0.00,,---,0.00,VWS V13.01,2013-06-25 22:44:00,
2013-06-25 18:46:00,83.4,74.7,29.98,ENE,68,7.8,7.8,75,0.00,,---,0.00,VWS V13.01,2013-06-25 22:46:00,
2013-06-25 18:47:00,83.4,74.7,29.98,ESE,112,2.9,2.9,75,0.00,,---,0.00,VWS V13.01,2013-06-25 22:47:00,
2013-06-25 18:48:00,83.4,74.7,29.98,East,90,2.0,2.0,75,0.00,,---,0.00,VWS V13.01,2013-06-25 22:48:00,
2013-06-25 18:50:00,83.3,74.6,29.97,SE,135,0.0,0.0,75,0.00,,---,0.00,VWS V13.01,2013-06-25 22:50:00,
2013-06-25 18:51:00,83.3,74.9,29.98,SE,135,1.7,1.7,76,0.00,,---,0.00,VWS V13.01,2013-06-25 22:51:00,
2013-06-25 18:52:00,83.3,74.9,29.98,ENE,68,2.0,2.0,76,0.00,,---,0.00,VWS V13.01,2013-06-25 22:52:00,
2013-06-25 18:53:00,83.3,74.9,29.98,ENE,68,0.0,0.0,76,0.00,,---,0.00,VWS V13.01,2013-06-25 22:53:00,
2013-06-25 18:55:00,83.3,74.9,29.98,ESE,112,0.0,0.0,76,0.00,,---,0.00,VWS V13.01,2013-06-25 22:55:00,
2013-06-25 18:56:00,83.3,74.9,29.98,SE,135,0.0,0.0,76,0.00,,---,0.00,VWS V13.01,2013-06-25 22:56:00,
2013-06-25 18:57:00,83.3,74.9,29.98,ESE,112,6.0,6.0,76,0.00,,---,0.00,VWS V13.01,2013-06-25 22:57:00,
2013-06-25 18:58:00,83.1,74.8,29.98,SSE,158,1.5,1.5,76,0.00,,---,0.00,VWS V13.01,2013-06-25 22:58:00,
2013-06-25 19:00:00,83.1,74.8,29.98,ESE,112,0.0,0.0,76,0.00,,---,0.00,VWS V13.01,2013-06-25 23:00:00,
2013-06-25 19:01:00,83.1,74.8,29.98,ESE,112,1.5,1.5,76,0.00,,---,0.00,VWS V13.01,2013-06-25 23:01:00,
2013-06-25 19:02:00,83.1,74.8,29.98,ESE,112,0.0,0.0,76,0.00,,---,0.00,VWS V13.01,2013-06-25 23:02:00,
2013-06-25 19:03:00,83.1,74.4,29.98,ENE,68,2.6,2.6,75,0.00,,---,0.00,VWS V13.01,2013-06-25 23:03:00,
2013-06-25 19:05:00,83.1,74.4,29.98,East,90,3.8,3.8,75,0.00,,---,0.00,VWS V13.01,2013-06-25 23:05:00,
2013-06-25 19:06:00,83.1,74.4,29.98,East,90,4.6,4.6,75,0.00,,---,0.00,VWS V13.01,2013-06-25 23:06:00,
2013-06-25 19:07:00,83.1,74.4,29.98,ENE,68,2.2,2.2,75,0.00,,---,0.00,VWS V13.01,2013-06-25 23:07:00,
2013-06-25 19:09:00,83.1,74.4,29.98,ESE,112,3.5,3.5,75,0.00,,---,0.00,VWS V13.01,2013-06-25 23:09:00,
2013-06-25 19:10:00,83.1,74.4,29.98,East,90,2.4,2.4,75,0.00,,---,0.00,VWS V13.01,2013-06-25 23:10:00,
2013-06-25 19:11:00,83.1,74.4,29.98,NE,45,0.0,0.0,75,0.00,,---,0.00,VWS V13.01,2013-06-25 23:11:00,
2013-06-25 19:12:00,83.1,74.4,29.98,East,90,3.5,3.5,75,0.00,,---,0.00,VWS V13.01,2013-06-25 23:12:00,
2013-06-25 19:13:00,83.1,74.4,29.98,East,90,3.5,3.5,75,0.00,,---,0.00,VWS V13.01,2013-06-25 23:13:00,
2013-06-25 19:14:00,83.1,74.4,29.97,ENE,68,1.5,1.5,75,0.00,,---,0.00,VWS V13.01,2013-06-25 23:14:00,
2013-06-25 19:15:00,83.1,74.4,29.97,ENE,68,6.0,6.0,75,0.00,,---,0.00,VWS V13.01,2013-06-25 23:15:00,
2013-06-25 19:16:00,83.1,74.4,29.97,East,90,2.0,2.0,75,0.00,,---,0.00,VWS V13.01,2013-06-25 23:16:00,
2013-06-25 19:18:00,82.9,74.2,29.97,ENE,68,5.3,5.3,75,0.00,,---,0.00,VWS V13.01,2013-06-25 23:18:00,
2013-06-25 19:19:00,82.9,74.2,29.97,East,90,1.5,1.5,75,0.00,,---,0.00,VWS V13.01,2013-06-25 23:19:00,
2013-06-25 19:20:00,82.9,74.2,29.97,ENE,68,0.0,0.0,75,0.00,,---,0.00,VWS V13.01,2013-06-25 23:20:00,
2013-06-25 19:21:00,82.9,74.2,29.97,ENE,68,4.2,4.2,75,0.00,,---,0.00,VWS V13.01,2013-06-25 23:21:00,
2013-06-25 19:23:00,82.9,74.2,29.98,NNE,22,0.0,0.0,75,0.00,,---,0.00,VWS V13.01,2013-06-25 23:23:00,
2013-06-25 19:24:00,82.9,74.6,29.98,SE,135,1.5,1.5,76,0.00,,---,0.00,VWS V13.01,2013-06-25 23:24:00,
2013-06-25 19:25:00,82.9,74.6,29.98,East,90,4.6,4.6,76,0.00,,---,0.00,VWS V13.01,2013-06-25 23:25:00,
2013-06-25 19:26:00,82.9,74.6,29.98,ENE,68,3.5,3.5,76,0.00,,---,0.00,VWS V13.01,2013-06-25 23:26:00,
2013-06-25 19:28:00,82.9,74.6,29.98,ESE,112,1.1,1.1,76,0.00,,---,0.00,VWS V13.01,2013-06-25 23:28:00,
2013-06-25 19:29:00,82.9,74.6,29.98,ENE,68,3.5,3.5,76,0.00,,---,0.00,VWS V13.01,2013-06-25 23:29:00,
2013-06-25 19:30:00,82.9,74.6,29.98,East,90,2.4,2.4,76,0.00,,---,0.00,VWS V13.01,2013-06-25 23:30:00,
2013-06-25 19:31:00,82.9,74.6,29.98,ESE,112,0.0,0.0,76,0.00,,---,0.00,VWS V13.01,2013-06-25 23:31:00,
2013-06-25 19:33:00,82.9,74.6,29.98,SE,135,1.7,1.7,76,0.00,,---,0.00,VWS V13.01,2013-06-25 23:33:00,
2013-06-25 19:35:00,82.9,74.6,29.98,NE,45,0.0,0.0,76,0.00,,---,0.00,VWS V13.01,2013-06-25 23:35:00,
2013-06-25 19:36:00,83.1,74.8,29.98,ESE,112,3.1,3.1,76,0.00,,---,0.00,VWS V13.01,2013-06-25 23:36:00,
2013-06-25 19:38:00,83.1,74.8,29.98,ESE,112,0.0,0.0,76,0.00,,---,0.00,VWS V13.01,2013-06-25 23:38:00,
2013-06-25 19:40:00,83.1,74.8,29.98,ESE,112,2.2,2.2,76,0.00,,---,0.00,VWS V13.01,2013-06-25 23:40:00,
2013-06-25 19:41:00,83.1,74.8,29.98,ENE,68,1.1,1.1,76,0.00,,---,0.00,VWS V13.01,2013-06-25 23:41:00,
2013-06-25 19:43:00,83.1,75.2,29.98,SSE,158,0.0,0.0,77,0.00,,---,0.00,VWS V13.01,2013-06-25 23:43:00,
2013-06-25 19:45:00,82.9,74.9,29.97,SE,135,0.0,0.0,77,0.00,,---,0.00,VWS V13.01,2013-06-25 23:45:00,
2013-06-25 19:46:00,82.9,74.9,29.97,ESE,112,0.0,0.0,77,0.00,,---,0.00,VWS V13.01,2013-06-25 23:46:00,
2013-06-25 19:48:00,82.9,75.3,29.97,ESE,112,2.0,2.0,78,0.00,,---,0.00,VWS V13.01,2013-06-25 23:48:00,
2013-06-25 19:50:00,82.9,75.3,29.97,East,90,0.0,0.0,78,0.00,,---,0.00,VWS V13.01,2013-06-25 23:50:00,
2013-06-25 19:51:00,82.9,75.3,29.97,SE,135,1.3,1.3,78,0.00,,---,0.00,VWS V13.01,2013-06-25 23:51:00,
2013-06-25 19:53:00,82.9,75.3,29.98,ENE,68,2.0,2.0,78,0.00,,---,0.00,VWS V13.01,2013-06-25 23:53:00,
2013-06-25 19:55:00,82.9,75.3,29.97,ESE,112,0.0,0.0,78,0.00,,---,0.00,VWS V13.01,2013-06-25 23:55:00,
2013-06-25 19:56:00,82.9,75.3,29.97,SSE,158,0.0,0.0,78,0.00,,---,0.00,VWS V13.01,2013-06-25 23:56:00,
2013-06-25 19:58:00,82.9,75.7,29.97,South,180,0.0,0.0,79,0.00,,---,0.00,VWS V13.01,2013-06-25 23:58:00,
2013-06-25 20:00:00,82.9,75.7,29.98,SSE,158,3.8,3.8,79,0.00,,---,0.00,VWS V13.01,2013-06-26 00:00:00,
2013-06-25 20:02:00,82.9,75.7,29.98,SE,135,4.4,4.4,79,0.00,,---,0.00,VWS V13.01,2013-06-26 00:02:00,
2013-06-25 20:03:00,82.9,75.7,29.98,SE,135,3.5,3.5,79,0.00,,---,0.00,VWS V13.01,2013-06-26 00:03:00,
2013-06-25 20:05:00,82.7,75.5,29.98,SSE,158,4.0,4.4,79,0.00,,---,0.00,VWS V13.01,2013-06-26 00:05:00,
2013-06-25 20:06:00,82.7,75.5,29.98,SSE,158,4.0,4.0,79,0.00,,---,0.00,VWS V13.01,2013-06-26 00:06:00,
2013-06-25 20:07:00,82.7,75.5,29.97,South,180,5.3,5.3,79,0.00,,---,0.00,VWS V13.01,2013-06-26 00:07:00,
2013-06-25 20:08:00,82.7,75.5,29.98,SSE,158,3.3,3.3,79,0.00,,---,0.00,VWS V13.01,2013-06-26 00:08:00,
2013-06-25 20:10:00,82.5,75.3,29.97,SSW,202,0.0,0.0,79,0.00,,---,0.00,VWS V13.01,2013-06-26 00:10:00,
2013-06-25 20:11:00,82.5,75.3,29.97,SSE,158,9.6,9.6,79,0.00,,---,0.00,VWS V13.01,2013-06-26 00:11:00,
2013-06-25 20:12:00,82.5,75.3,29.98,South,180,4.9,4.9,79,0.02,,---,0.02,VWS V13.01,2013-06-26 00:12:00,
2013-06-25 20:13:00,82.2,75.0,29.98,SSE,158,9.6,9.6,79,0.04,,---,0.04,VWS V13.01,2013-06-26 00:13:00,
2013-06-25 20:15:00,82.0,74.8,29.98,South,180,3.8,3.8,79,0.04,,---,0.04,VWS V13.01,2013-06-26 00:15:00,
2013-06-25 20:16:00,82.0,75.2,29.98,SE,135,2.2,2.2,80,0.04,,---,0.04,VWS V13.01,2013-06-26 00:16:00,
2013-06-25 20:17:00,81.6,74.8,29.98,SSW,202,3.5,3.5,80,0.04,,---,0.04,VWS V13.01,2013-06-26 00:17:00,
2013-06-25 20:18:00,81.6,74.8,29.98,SSW,202,0.8,0.8,80,0.04,,---,0.04,VWS V13.01,2013-06-26 00:18:00,
2013-06-25 20:20:00,81.5,74.7,29.98,South,180,8.0,8.0,80,0.06,,---,0.06,VWS V13.01,2013-06-26 00:20:00,
2013-06-25 20:21:00,81.3,74.9,29.98,SE,135,6.9,6.9,81,0.08,,---,0.08,VWS V13.01,2013-06-26 00:21:00,
2013-06-25 20:22:00,81.3,74.9,29.98,SSE,158,6.9,6.9,81,0.08,,---,0.08,VWS V13.01,2013-06-26 00:22:00,
2013-06-25 20:23:00,81.1,74.3,29.98,SE,135,7.6,7.6,80,0.08,,---,0.08,VWS V13.01,2013-06-26 00:23:00,
2013-06-25 20:25:00,80.9,74.5,29.98,ENE,68,5.3,5.3,81,0.08,,---,0.08,VWS V13.01,2013-06-26 00:25:00,
2013-06-25 20:26:00,80.9,74.5,29.98,ENE,68,5.3,5.3,81,0.08,,---,0.08,VWS V13.01,2013-06-26 00:26:00,
2013-06-25 20:27:00,80.9,74.5,29.98,ESE,112,1.1,1.1,81,0.08,,---,0.08,VWS V13.01,2013-06-26 00:27:00,
2013-06-25 20:28:00,80.9,74.5,29.98,SSE,158,0.0,0.0,81,0.08,,---,0.08,VWS V13.01,2013-06-26 00:28:00,
2013-06-25 20:31:00,80.9,74.9,29.98,SSE,158,1.1,1.1,82,0.08,,---,0.08,VWS V13.01,2013-06-26 00:31:00,
2013-06-25 20:32:00,80.9,74.9,29.98,SSE,158,3.1,3.1,82,0.08,,---,0.08,VWS V13.01,2013-06-26 00:32:00,
2013-06-25 20:33:00,80.9,74.9,29.98,SE,135,0.0,0.0,82,0.08,,---,0.08,VWS V13.01,2013-06-26 00:33:00,
2013-06-25 20:34:00,80.9,74.9,29.98,SE,135,0.0,0.0,82,0.08,,---,0.08,VWS V13.01,2013-06-26 00:34:00,
2013-06-25 20:36:00,80.9,74.9,29.98,East,90,0.0,0.0,82,0.08,,---,0.08,VWS V13.01,2013-06-26 00:36:00,
2013-06-25 20:37:00,81.1,75.1,29.98,SE,135,0.0,0.0,82,0.08,,---,0.08,VWS V13.01,2013-06-26 00:37:00,
2013-06-25 20:38:00,80.9,74.9,29.98,SE,135,0.0,0.0,82,0.08,,---,0.08,VWS V13.01,2013-06-26 00:38:00,
2013-06-25 20:39:00,80.9,74.9,29.98,SE,135,0.0,0.0,82,0.08,,---,0.08,VWS V13.01,2013-06-26 00:39:00,
2013-06-25 20:41:00,81.1,75.1,29.98,SE,135,0.0,0.0,82,0.08,,---,0.08,VWS V13.01,2013-06-26 00:41:00,
2013-06-25 20:42:00,81.1,75.1,29.98,SSE,158,1.5,1.5,82,0.08,,---,0.08,VWS V13.01,2013-06-26 00:42:00,
2013-06-25 20:43:00,81.1,75.1,29.98,ESE,112,0.0,0.0,82,0.08,,---,0.08,VWS V13.01,2013-06-26 00:43:00,
2013-06-25 20:44:00,81.1,75.1,29.98,ESE,112,0.0,0.0,82,0.08,,---,0.08,VWS V13.01,2013-06-26 00:44:00,
2013-06-25 20:46:00,81.1,75.1,29.98,ESE,112,0.0,0.0,82,0.08,,---,0.08,VWS V13.01,2013-06-26 00:46:00,
2013-06-25 20:47:00,81.1,75.1,29.99,SE,135,0.0,0.0,82,0.08,,---,0.08,VWS V13.01,2013-06-26 00:47:00,
2013-06-25 20:48:00,81.1,75.1,29.98,South,180,0.0,0.0,82,0.08,,---,0.08,VWS V13.01,2013-06-26 00:48:00,
2013-06-25 20:49:00,81.1,75.1,29.98,South,180,0.0,0.0,82,0.08,,---,0.08,VWS V13.01,2013-06-26 00:49:00,
2013-06-25 20:51:00,81.1,75.1,29.98,SE,135,3.1,3.1,82,0.08,,---,0.08,VWS V13.01,2013-06-26 00:51:00,
2013-06-25 20:52:00,81.1,75.1,29.98,SE,135,1.5,1.5,82,0.08,,---,0.08,VWS V13.01,2013-06-26 00:52:00,
2013-06-25 20:54:00,81.1,75.1,29.98,SE,135,2.2,2.2,82,0.08,,---,0.08,VWS V13.01,2013-06-26 00:54:00,
2013-06-25 20:56:00,81.1,75.1,29.98,SE,135,4.0,4.0,82,0.08,,---,0.08,VWS V13.01,2013-06-26 00:56:00,
2013-06-25 20:58:00,81.1,75.1,29.98,South,180,2.4,2.4,82,0.08,,---,0.08,VWS V13.01,2013-06-26 00:58:00,
2013-06-25 20:59:00,81.1,75.1,29.98,SSW,202,0.0,0.0,82,0.08,,---,0.08,VWS V13.01,2013-06-26 00:59:00,
2013-06-25 21:01:00,81.1,75.1,29.98,West,270,0.0,0.0,82,0.08,,---,0.08,VWS V13.01,2013-06-26 01:01:00,
2013-06-25 21:03:00,81.1,75.1,29.98,SSE,158,0.0,0.0,82,0.08,,---,0.08,VWS V13.01,2013-06-26 01:03:00,
2013-06-25 21:04:00,80.9,74.9,29.98,SE,135,0.0,0.0,82,0.08,,---,0.08,VWS V13.01,2013-06-26 01:04:00,
2013-06-25 21:06:00,80.9,74.9,29.98,SE,135,0.0,0.0,82,0.08,,---,0.08,VWS V13.01,2013-06-26 01:06:00,
2013-06-25 21:08:00,80.9,74.9,29.98,SSE,158,0.6,0.6,82,0.08,,---,0.08,VWS V13.01,2013-06-26 01:08:00,
2013-06-25 21:09:00,80.9,74.9,29.98,SSE,158,0.0,0.0,82,0.08,,---,0.08,VWS V13.01,2013-06-26 01:09:00,
2013-06-25 21:11:00,80.9,74.9,29.99,SE,135,0.0,1.7,82,0.04,,---,0.08,VWS V13.01,2013-06-26 01:11:00,
2013-06-25 21:12:00,80.9,74.9,29.99,SE,135,0.0,0.0,82,0.04,,---,0.08,VWS V13.01,2013-06-26 01:12:00,
2013-06-25 21:13:00,80.9,74.9,29.99,South,180,0.0,0.0,82,0.04,,---,0.08,VWS V13.01,2013-06-26 01:13:00,
2013-06-25 21:14:00,80.9,75.3,29.98,SE,135,0.0,0.0,83,0.04,,---,0.08,VWS V13.01,2013-06-26 01:14:00,
2013-06-25 21:16:00,81.1,75.4,29.99,SSE,158,0.0,0.0,83,0.04,,---,0.08,VWS V13.01,2013-06-26 01:16:00,
2013-06-25 21:17:00,81.1,75.4,29.99,SSE,158,0.0,0.0,83,0.04,,---,0.08,VWS V13.01,2013-06-26 01:17:00,
2013-06-25 21:18:00,81.1,75.4,29.99,SSE,158,0.0,0.0,83,0.04,,---,0.08,VWS V13.01,2013-06-26 01:18:00,
2013-06-25 21:19:00,81.1,75.4,29.99,SE,135,4.0,4.0,83,0.00,,---,0.08,VWS V13.01,2013-06-26 01:19:00,
2013-06-25 21:21:00,81.1,75.4,29.99,East,90,8.2,8.2,83,0.02,,---,0.10,VWS V13.01,2013-06-26 01:21:00,
2013-06-25 21:22:00,81.1,75.4,29.99,East,90,8.2,8.2,83,0.02,,---,0.10,VWS V13.01,2013-06-26 01:22:00,
2013-06-25 21:23:00,81.1,75.4,30.00,ESE,112,3.3,3.3,83,0.02,,---,0.10,VWS V13.01,2013-06-26 01:23:00,
2013-06-25 21:24:00,80.9,75.3,30.00,East,90,0.0,0.0,83,0.04,,---,0.12,VWS V13.01,2013-06-26 01:24:00,
2013-06-25 21:26:00,80.7,75.1,29.99,WSW,248,4.0,4.0,83,0.04,,---,0.12,VWS V13.01,2013-06-26 01:26:00,
2013-06-25 21:27:00,80.7,75.1,29.99,WSW,248,4.0,4.0,83,0.04,,---,0.12,VWS V13.01,2013-06-26 01:27:00,
2013-06-25 21:28:00,80.7,75.1,29.99,SSE,158,2.6,2.6,83,0.04,,---,0.12,VWS V13.01,2013-06-26 01:28:00,
2013-06-25 21:29:00,80.7,75.1,29.99,SE,135,7.3,7.3,83,0.04,,---,0.12,VWS V13.01,2013-06-26 01:29:00,
2013-06-25 21:32:00,80.7,75.1,29.99,SSE,158,2.6,2.6,83,0.04,,---,0.12,VWS V13.01,2013-06-26 01:32:00,
2013-06-25 21:33:00,80.6,75.0,29.99,SE,135,1.3,1.3,83,0.04,,---,0.12,VWS V13.01,2013-06-26 01:33:00,
2013-06-25 21:34:00,80.6,75.0,29.99,ESE,112,0.0,0.0,83,0.04,,---,0.12,VWS V13.01,2013-06-26 01:34:00,
2013-06-25 21:35:00,80.6,75.0,29.99,East,90,0.0,0.0,83,0.04,,---,0.12,VWS V13.01,2013-06-26 01:35:00,
2013-06-25 21:37:00,80.6,75.0,29.99,SE,135,1.5,1.5,83,0.04,,---,0.12,VWS V13.01,2013-06-26 01:37:00,
2013-06-25 21:38:00,80.6,75.0,29.99,SE,135,0.0,0.0,83,0.04,,---,0.12,VWS V13.01,2013-06-26 01:38:00,
2013-06-25 21:39:00,80.6,75.0,29.99,SE,135,1.5,1.5,83,0.04,,---,0.12,VWS V13.01,2013-06-26 01:39:00,
2013-06-25 21:40:00,80.6,75.3,29.99,SSE,158,6.9,6.9,84,0.04,,---,0.12,VWS V13.01,2013-06-26 01:40:00,
2013-06-25 21:42:00,80.6,75.3,29.99,SSE,158,6.4,6.4,84,0.04,,---,0.12,VWS V13.01,2013-06-26 01:42:00,
2013-06-25 21:43:00,80.6,75.3,29.99,SE,135,3.5,3.5,84,0.04,,---,0.12,VWS V13.01,2013-06-26 01:43:00,
2013-06-25 21:44:00,80.6,75.0,29.99,SE,135,0.0,0.0,83,0.04,,---,0.12,VWS V13.01,2013-06-26 01:44:00,
2013-06-25 21:45:00,80.4,75.1,29.99,SSE,158,1.1,1.1,84,0.04,,---,0.12,VWS V13.01,2013-06-26 01:45:00,
2013-06-25 21:47:00,80.4,75.1,29.99,SSE,158,4.6,4.6,84,0.04,,---,0.12,VWS V13.01,2013-06-26 01:47:00,
2013-06-25 21:48:00,80.4,75.1,29.99,South,180,3.5,3.5,84,0.04,,---,0.12,VWS V13.01,2013-06-26 01:48:00,
2013-06-25 21:49:00,80.4,75.1,29.99,South,180,2.4,2.4,84,0.04,,---,0.12,VWS V13.01,2013-06-26 01:49:00,
2013-06-25 21:50:00,80.4,75.1,29.99,South,180,5.1,5.1,84,0.04,,---,0.12,VWS V13.01,2013-06-26 01:50:00,
2013-06-25 21:52:00,80.4,75.1,29.99,South,180,8.2,8.2,84,0.04,,---,0.12,VWS V13.01,2013-06-26 01:52:00,
2013-06-25 21:53:00,80.4,75.1,30.00,SSE,158,5.1,5.1,84,0.04,,---,0.12,VWS V13.01,2013-06-26 01:53:00,
2013-06-25 21:54:00,80.4,75.1,30.00,SSE,158,4.4,4.4,84,0.04,,---,0.12,VWS V13.01,2013-06-26 01:54:00,
2013-06-25 21:55:00,80.4,75.1,30.00,South,180,1.5,1.5,84,0.04,,---,0.12,VWS V13.01,2013-06-26 01:55:00,
2013-06-25 21:57:00,80.4,75.1,30.00,South,180,1.5,1.5,84,0.04,,---,0.12,VWS V13.01,2013-06-26 01:57:00,
2013-06-25 21:58:00,80.4,75.1,30.00,SE,135,2.0,2.0,84,0.04,,---,0.12,VWS V13.01,2013-06-26 01:58:00,
2013-06-25 21:59:00,80.4,75.1,30.00,SE,135,4.4,4.4,84,0.04,,---,0.12,VWS V13.01,2013-06-26 01:59:00,
2013-06-25 22:00:00,80.4,75.1,30.00,SSE,158,2.6,2.6,84,0.04,,---,0.12,VWS V13.01,2013-06-26 02:00:00,
2013-06-25 22:02:00,80.4,75.1,30.00,SSE,158,0.0,0.0,84,0.04,,---,0.12,VWS V13.01,2013-06-26 02:02:00,
2013-06-25 22:03:00,80.4,75.1,30.00,SSE,158,3.3,3.3,84,0.04,,---,0.12,VWS V13.01,2013-06-26 02:03:00,
2013-06-25 22:04:00,80.4,75.1,30.00,SE,135,0.0,0.0,84,0.04,,---,0.12,VWS V13.01,2013-06-26 02:04:00,
2013-06-25 22:05:00,80.4,75.1,30.00,SE,135,0.0,0.0,84,0.04,,---,0.12,VWS V13.01,2013-06-26 02:05:00,
2013-06-25 22:07:00,80.4,75.1,30.00,SE,135,1.5,1.5,84,0.04,,---,0.12,VWS V13.01,2013-06-26 02:07:00,
2013-06-25 22:08:00,80.4,75.1,30.00,SSW,202,4.2,4.2,84,0.04,,---,0.12,VWS V13.01,2013-06-26 02:08:00,
2013-06-25 22:09:00,80.4,74.8,30.00,SE,135,0.0,0.0,83,0.04,,---,0.12,VWS V13.01,2013-06-26 02:09:00,
2013-06-25 22:10:00,80.4,74.8,30.00,SE,135,0.0,0.0,83,0.04,,---,0.12,VWS V13.01,2013-06-26 02:10:00,
2013-06-25 22:12:00,80.4,74.8,30.00,SE,135,2.2,2.2,83,0.04,,---,0.12,VWS V13.01,2013-06-26 02:12:00,
2013-06-25 22:13:00,80.4,75.1,30.00,ESE,112,0.0,0.0,84,0.04,,---,0.12,VWS V13.01,2013-06-26 02:13:00,
2013-06-25 22:14:00,80.4,75.1,30.00,SSE,158,0.0,0.0,84,0.04,,---,0.12,VWS V13.01,2013-06-26 02:14:00,
2013-06-25 22:15:00,80.4,75.1,30.00,SSE,158,0.0,0.0,84,0.04,,---,0.12,VWS V13.01,2013-06-26 02:15:00,
2013-06-25 22:17:00,80.4,74.8,30.00,SE,135,0.0,0.0,83,0.04,,---,0.12,VWS V13.01,2013-06-26 02:17:00,
2013-06-25 22:18:00,80.4,74.8,30.00,SE,135,0.0,0.0,83,0.04,,---,0.12,VWS V13.01,2013-06-26 02:18:00,
2013-06-25 22:20:00,80.4,74.8,30.00,SE,135,1.3,1.3,83,0.02,,---,0.12,VWS V13.01,2013-06-26 02:20:00,
2013-06-25 22:22:00,80.4,75.1,30.01,South,180,2.4,2.4,84,0.02,,---,0.12,VWS V13.01,2013-06-26 02:22:00,
2013-06-25 22:23:00,80.4,74.8,30.01,South,180,4.6,4.6,83,0.00,,---,0.12,VWS V13.01,2013-06-26 02:23:00,
2013-06-25 22:25:00,80.4,74.8,30.01,South,180,2.0,2.0,83,0.00,,---,0.12,VWS V13.01,2013-06-26 02:25:00,
2013-06-25 22:28:00,80.4,74.8,30.01,SE,135,4.6,4.6,83,0.00,,---,0.12,VWS V13.01,2013-06-26 02:28:00,
2013-06-25 22:30:00,80.4,74.8,30.00,SE,135,1.5,1.5,83,0.00,,---,0.12,VWS V13.01,2013-06-26 02:30:00,
2013-06-25 22:31:00,80.4,74.8,30.00,ESE,112,2.4,2.4,83,0.00,,---,0.12,VWS V13.01,2013-06-26 02:31:00,
2013-06-25 22:33:00,80.4,74.8,30.00,SE,135,1.5,1.5,83,0.00,,---,0.12,VWS V13.01,2013-06-26 02:33:00,
2013-06-25 22:35:00,80.4,74.8,30.00,South,180,4.6,4.6,83,0.00,,---,0.12,VWS V13.01,2013-06-26 02:35:00,
2013-06-25 22:36:00,80.4,74.8,30.00,SE,135,2.0,2.0,83,0.00,,---,0.12,VWS V13.01,2013-06-26 02:36:00,
2013-06-25 22:38:00,80.4,74.8,30.00,SE,135,2.2,2.2,83,0.00,,---,0.12,VWS V13.01,2013-06-26 02:38:00,
2013-06-25 22:40:00,80.4,74.8,30.00,SW,225,2.2,2.2,83,0.00,,---,0.12,VWS V13.01,2013-06-26 02:40:00,
2013-06-25 22:41:00,80.4,74.8,30.00,SSE,158,7.1,7.1,83,0.00,,---,0.12,VWS V13.01,2013-06-26 02:41:00,
2013-06-25 22:43:00,80.4,74.8,30.00,ESE,112,4.2,4.2,83,0.00,,---,0.12,VWS V13.01,2013-06-26 02:43:00,
2013-06-25 22:44:00,80.4,74.8,30.00,SE,135,1.1,1.1,83,0.00,,---,0.12,VWS V13.01,2013-06-26 02:44:00,
2013-06-25 22:45:00,80.4,74.8,30.00,SSE,158,4.2,4.2,83,0.00,,---,0.12,VWS V13.01,2013-06-26 02:45:00,
2013-06-25 22:46:00,80.4,74.8,30.00,SE,135,3.8,3.8,83,0.00,,---,0.12,VWS V13.01,2013-06-26 02:46:00,
2013-06-25 22:48:00,80.4,74.8,30.00,South,180,4.4,4.4,83,0.00,,---,0.12,VWS V13.01,2013-06-26 02:48:00,
2013-06-25 22:49:00,80.2,74.6,30.00,South,180,3.8,3.8,83,0.00,,---,0.12,VWS V13.01,2013-06-26 02:49:00,
2013-06-25 22:50:00,80.2,74.6,30.00,SSE,158,0.0,0.0,83,0.00,,---,0.12,VWS V13.01,2013-06-26 02:50:00,
2013-06-25 22:51:00,80.2,74.6,30.00,SSE,158,0.0,0.0,83,0.00,,---,0.12,VWS V13.01,2013-06-26 02:51:00,
2013-06-25 22:53:00,80.2,74.6,30.00,South,180,2.9,2.9,83,0.00,,---,0.12,VWS V13.01,2013-06-26 02:53:00,
2013-06-25 22:54:00,80.2,74.9,30.01,South,180,4.0,4.0,84,0.00,,---,0.12,VWS V13.01,2013-06-26 02:54:00,
2013-06-25 22:55:00,80.2,74.9,30.01,SE,135,0.0,0.0,84,0.00,,---,0.12,VWS V13.01,2013-06-26 02:55:00,
2013-06-25 22:56:00,80.2,74.9,30.01,SE,135,0.0,0.0,84,0.00,,---,0.12,VWS V13.01,2013-06-26 02:56:00,
2013-06-25 22:58:00,80.2,74.9,30.00,SSE,158,0.8,0.8,84,0.00,,---,0.12,VWS V13.01,2013-06-26 02:58:00,
2013-06-25 22:59:00,80.2,74.9,30.00,SE,135,0.0,0.0,84,0.00,,---,0.12,VWS V13.01,2013-06-26 02:59:00,
2013-06-25 23:01:00,80.4,75.1,30.01,SSE,158,1.1,1.1,84,0.00,,---,0.12,VWS V13.01,2013-06-26 03:01:00,
2013-06-25 23:03:00,80.4,75.1,30.00,SSE,158,0.0,0.0,84,0.00,,---,0.12,VWS V13.01,2013-06-26 03:03:00,
2013-06-25 23:04:00,80.4,75.1,30.00,ESE,112,0.0,0.0,84,0.00,,---,0.12,VWS V13.01,2013-06-26 03:04:00,
2013-06-25 23:06:00,80.4,75.1,30.00,SE,135,1.7,1.7,84,0.00,,---,0.12,VWS V13.01,2013-06-26 03:06:00,
2013-06-25 23:08:00,80.2,74.9,30.01,SE,135,3.1,3.1,84,0.00,,---,0.12,VWS V13.01,2013-06-26 03:08:00,
2013-06-25 23:09:00,80.2,74.9,30.00,SE,135,0.0,0.0,84,0.00,,---,0.12,VWS V13.01,2013-06-26 03:09:00,
2013-06-25 23:11:00,80.2,74.9,30.00,SSE,158,3.1,3.1,84,0.00,,---,0.12,VWS V13.01,2013-06-26 03:11:00,
2013-06-25 23:13:00,80.2,74.9,30.00,South,180,2.0,2.0,84,0.00,,---,0.12,VWS V13.01,2013-06-26 03:13:00,
2013-06-25 23:14:00,80.2,74.9,30.00,SSE,158,4.4,4.4,84,0.00,,---,0.12,VWS V13.01,2013-06-26 03:14:00,
2013-06-25 23:16:00,80.2,74.9,30.00,SSE,158,2.2,2.2,84,0.00,,---,0.12,VWS V13.01,2013-06-26 03:16:00,
2013-06-25 23:18:00,80.2,74.9,30.00,SSE,158,1.7,1.7,84,0.00,,---,0.12,VWS V13.01,2013-06-26 03:18:00,
2013-06-25 23:19:00,80.2,74.9,29.99,ESE,112,0.0,0.0,84,0.00,,---,0.12,VWS V13.01,2013-06-26 03:19:00,
2013-06-25 23:21:00,80.2,74.9,29.99,South,180,1.5,1.5,84,0.00,,---,0.12,VWS V13.01,2013-06-26 03:21:00,
2013-06-25 23:23:00,80.2,74.9,30.00,South,180,0.0,0.0,84,0.00,,---,0.12,VWS V13.01,2013-06-26 03:23:00,
2013-06-25 23:24:00,80.2,74.9,30.00,South,180,0.0,0.0,84,0.00,,---,0.12,VWS V13.01,2013-06-26 03:24:00,
2013-06-25 23:26:00,80.2,74.9,30.00,South,180,0.0,0.0,84,0.00,,---,0.12,VWS V13.01,2013-06-26 03:26:00,
2013-06-25 23:28:00,80.2,74.9,29.99,SE,135,1.3,1.3,84,0.00,,---,0.12,VWS V13.01,2013-06-26 03:28:00,
2013-06-25 23:29:00,80.2,74.9,30.00,South,180,0.0,0.0,84,0.00,,---,0.12,VWS V13.01,2013-06-26 03:29:00,
2013-06-25 23:31:00,80.2,74.9,30.00,SSE,158,0.0,0.0,84,0.00,,---,0.12,VWS V13.01,2013-06-26 03:31:00,
2013-06-25 23:33:00,80.2,74.9,30.00,South,180,0.0,0.0,84,0.00,,---,0.12,VWS V13.01,2013-06-26 03:33:00,
2013-06-25 23:34:00,80.2,74.9,30.00,South,180,0.0,0.0,84,0.00,,---,0.12,VWS V13.01,2013-06-26 03:34:00,
2013-06-25 23:36:00,80.2,74.9,29.99,SSE,158,0.0,0.0,84,0.00,,---,0.12,VWS V13.01,2013-06-26 03:36:00,
2013-06-25 23:37:00,80.2,74.9,29.99,SSE,158,0.0,0.0,84,0.00,,---,0.12,VWS V13.01,2013-06-26 03:37:00,
2013-06-25 23:38:00,80.2,74.9,29.99,South,180,1.7,1.7,84,0.00,,---,0.12,VWS V13.01,2013-06-26 03:38:00,
2013-06-25 23:39:00,80.2,74.9,29.99,South,180,1.7,1.7,84,0.00,,---,0.12,VWS V13.01,2013-06-26 03:39:00,
2013-06-25 23:41:00,80.2,74.9,29.99,SSW,202,0.0,0.0,84,0.00,,---,0.12,VWS V13.01,2013-06-26 03:41:00,
2013-06-25 23:42:00,80.2,74.9,30.00,South,180,2.6,2.6,84,0.00,,---,0.12,VWS V13.01,2013-06-26 03:42:00,
2013-06-25 23:43:00,80.2,74.9,29.99,SSE,158,0.0,2.0,84,0.00,,---,0.12,VWS V13.01,2013-06-26 03:43:00,
2013-06-25 23:44:00,80.2,74.9,29.99,SSE,158,0.0,0.0,84,0.00,,---,0.12,VWS V13.01,2013-06-26 03:44:00,
2013-06-25 23:46:00,80.2,74.9,29.99,South,180,0.0,0.0,84,0.00,,---,0.12,VWS V13.01,2013-06-26 03:46:00,
2013-06-25 23:47:00,80.2,74.9,29.99,SSE,158,2.0,2.0,84,0.00,,---,0.12,VWS V13.01,2013-06-26 03:47:00,
2013-06-25 23:48:00,80.2,74.9,29.99,South,180,0.0,0.0,84,0.00,,---,0.12,VWS V13.01,2013-06-26 03:48:00,
2013-06-25 23:49:00,80.2,74.9,29.99,SSE,158,2.9,2.9,84,0.00,,---,0.12,VWS V13.01,2013-06-26 03:49:00,
2013-06-25 23:51:00,80.2,74.9,29.99,SSE,158,0.0,0.0,84,0.00,,---,0.12,VWS V13.01,2013-06-26 03:51:00,
2013-06-25 23:52:00,80.2,74.9,29.99,South,180,0.0,0.0,84,0.00,,---,0.12,VWS V13.01,2013-06-26 03:52:00,
2013-06-25 23:53:00,80.2,74.9,29.99,South,180,1.5,1.7,84,0.00,,---,0.12,VWS V13.01,2013-06-26 03:53:00,
2013-06-25 23:54:00,80.2,74.9,29.99,South,180,1.5,1.5,84,0.00,,---,0.12,VWS V13.01,2013-06-26 03:54:00,
2013-06-25 23:56:00,80.2,74.9,29.99,SSE,158,3.3,3.3,84,0.00,,---,0.12,VWS V13.01,2013-06-26 03:56:00,
2013-06-25 23:57:00,80.2,74.9,29.99,SSE,158,0.0,0.0,84,0.00,,---,0.00,VWS V13.01,2013-06-26 03:57:00,
2013-06-25 23:58:00,80.2,74.9,29.99,SSW,202,4.2,4.2,84,0.00,,---,0.00,VWS V13.01,2013-06-26 03:58:00,
2013-06-25 23:59:00,80.2,74.9,29.99,SSW,202,4.2,4.2,84,0.00,,---,0.00,VWS V13.01,2013-06-26 03:59:00,